<?xml version="1.0" encoding="UTF-8" standalone="no" ?>
<gpx xmlns="http://www.topografix.com/GPX/1/1" xmlns:xsi="http://www.w3.org/2001/XMLSchema-instance" xsi:schemaLocation="http://www.topografix.com/GPX/1/1 http://www.topografix.com/GPX/1/1/gpx.xsd" version="1.1" creator="VisuGPX - https://www.visugpx.com">
  <metadata>
    <name>Hauteville</name>
    <desc><![CDATA[Beau parcours mais à réaliser à une autre période car le nuit tombe vite!]]></desc>
  </metadata>
  <trk>
    <name><![CDATA[2016-11-08-01]]></name>
    <desc><![CDATA[Ras]]></desc>
    <trkseg>
      <trkpt lat="47.36567" lon="4.97969">
        <ele>428.2</ele>
        <time>2016-11-08T13:12:08Z</time>
      </trkpt>
      <trkpt lat="47.36567" lon="4.97969">
        <ele>428.2</ele>
        <time>2016-11-08T13:12:09Z</time>
      </trkpt>
      <trkpt lat="47.36576" lon="4.97962">
        <ele>428.3</ele>
        <time>2016-11-08T13:12:40Z</time>
      </trkpt>
      <trkpt lat="47.36582" lon="4.97952">
        <ele>428.5</ele>
        <time>2016-11-08T13:12:51Z</time>
      </trkpt>
      <trkpt lat="47.36583" lon="4.97949">
        <ele>428.3</ele>
        <time>2016-11-08T13:12:54Z</time>
      </trkpt>
      <trkpt lat="47.3659" lon="4.97938">
        <ele>428.1</ele>
        <time>2016-11-08T13:13:05Z</time>
      </trkpt>
      <trkpt lat="47.36596" lon="4.97927">
        <ele>428</ele>
        <time>2016-11-08T13:13:16Z</time>
      </trkpt>
      <trkpt lat="47.366" lon="4.97913">
        <ele>427.7</ele>
        <time>2016-11-08T13:13:25Z</time>
      </trkpt>
      <trkpt lat="47.36605" lon="4.97901">
        <ele>427.1</ele>
        <time>2016-11-08T13:13:33Z</time>
      </trkpt>
      <trkpt lat="47.36611" lon="4.97889">
        <ele>427.9</ele>
        <time>2016-11-08T13:13:43Z</time>
      </trkpt>
      <trkpt lat="47.36616" lon="4.97877">
        <ele>428.3</ele>
        <time>2016-11-08T13:13:52Z</time>
      </trkpt>
      <trkpt lat="47.3662" lon="4.97864">
        <ele>428.2</ele>
        <time>2016-11-08T13:14:02Z</time>
      </trkpt>
      <trkpt lat="47.36622" lon="4.9785">
        <ele>428.5</ele>
        <time>2016-11-08T13:14:09Z</time>
      </trkpt>
      <trkpt lat="47.36627" lon="4.97838">
        <ele>428.6</ele>
        <time>2016-11-08T13:14:16Z</time>
      </trkpt>
      <trkpt lat="47.36633" lon="4.97826">
        <ele>429.2</ele>
        <time>2016-11-08T13:14:23Z</time>
      </trkpt>
      <trkpt lat="47.3664" lon="4.97816">
        <ele>429.9</ele>
        <time>2016-11-08T13:14:30Z</time>
      </trkpt>
      <trkpt lat="47.36644" lon="4.97804">
        <ele>430.5</ele>
        <time>2016-11-08T13:14:38Z</time>
      </trkpt>
      <trkpt lat="47.36648" lon="4.97792">
        <ele>430.1</ele>
        <time>2016-11-08T13:14:48Z</time>
      </trkpt>
      <trkpt lat="47.36653" lon="4.97778">
        <ele>430.2</ele>
        <time>2016-11-08T13:14:57Z</time>
      </trkpt>
      <trkpt lat="47.36657" lon="4.97766">
        <ele>430.2</ele>
        <time>2016-11-08T13:15:06Z</time>
      </trkpt>
      <trkpt lat="47.3666" lon="4.97752">
        <ele>429.6</ele>
        <time>2016-11-08T13:15:13Z</time>
      </trkpt>
      <trkpt lat="47.36665" lon="4.9774">
        <ele>428.9</ele>
        <time>2016-11-08T13:15:21Z</time>
      </trkpt>
      <trkpt lat="47.36672" lon="4.97729">
        <ele>429.2</ele>
        <time>2016-11-08T13:15:28Z</time>
      </trkpt>
      <trkpt lat="47.36676" lon="4.97717">
        <ele>429</ele>
        <time>2016-11-08T13:15:37Z</time>
      </trkpt>
      <trkpt lat="47.36684" lon="4.97707">
        <ele>429.6</ele>
        <time>2016-11-08T13:15:45Z</time>
      </trkpt>
      <trkpt lat="47.36692" lon="4.97712">
        <ele>431.5</ele>
        <time>2016-11-08T13:16:13Z</time>
      </trkpt>
      <trkpt lat="47.367" lon="4.97718">
        <ele>432.2</ele>
        <time>2016-11-08T13:16:19Z</time>
      </trkpt>
      <trkpt lat="47.36708" lon="4.97726">
        <ele>432.9</ele>
        <time>2016-11-08T13:16:27Z</time>
      </trkpt>
      <trkpt lat="47.36715" lon="4.97736">
        <ele>432.2</ele>
        <time>2016-11-08T13:16:38Z</time>
      </trkpt>
      <trkpt lat="47.36722" lon="4.97746">
        <ele>431.4</ele>
        <time>2016-11-08T13:16:45Z</time>
      </trkpt>
      <trkpt lat="47.3673" lon="4.97754">
        <ele>430.8</ele>
        <time>2016-11-08T13:16:51Z</time>
      </trkpt>
      <trkpt lat="47.36738" lon="4.9776">
        <ele>430.5</ele>
        <time>2016-11-08T13:16:58Z</time>
      </trkpt>
      <trkpt lat="47.36747" lon="4.97767">
        <ele>430.7</ele>
        <time>2016-11-08T13:17:06Z</time>
      </trkpt>
      <trkpt lat="47.36755" lon="4.97776">
        <ele>430.8</ele>
        <time>2016-11-08T13:17:17Z</time>
      </trkpt>
      <trkpt lat="47.36764" lon="4.97782">
        <ele>430.7</ele>
        <time>2016-11-08T13:17:22Z</time>
      </trkpt>
      <trkpt lat="47.36772" lon="4.97791">
        <ele>430.8</ele>
        <time>2016-11-08T13:17:30Z</time>
      </trkpt>
      <trkpt lat="47.36779" lon="4.97798">
        <ele>430.8</ele>
        <time>2016-11-08T13:17:39Z</time>
      </trkpt>
      <trkpt lat="47.36788" lon="4.97804">
        <ele>430.6</ele>
        <time>2016-11-08T13:17:46Z</time>
      </trkpt>
      <trkpt lat="47.36796" lon="4.97812">
        <ele>430.9</ele>
        <time>2016-11-08T13:17:54Z</time>
      </trkpt>
      <trkpt lat="47.36804" lon="4.97821">
        <ele>430.9</ele>
        <time>2016-11-08T13:18:02Z</time>
      </trkpt>
      <trkpt lat="47.36813" lon="4.97829">
        <ele>431</ele>
        <time>2016-11-08T13:18:10Z</time>
      </trkpt>
      <trkpt lat="47.36823" lon="4.97834">
        <ele>431.1</ele>
        <time>2016-11-08T13:18:18Z</time>
      </trkpt>
      <trkpt lat="47.36832" lon="4.97836">
        <ele>430.9</ele>
        <time>2016-11-08T13:18:27Z</time>
      </trkpt>
      <trkpt lat="47.36841" lon="4.97834">
        <ele>431.4</ele>
        <time>2016-11-08T13:18:35Z</time>
      </trkpt>
      <trkpt lat="47.36849" lon="4.97825">
        <ele>431.8</ele>
        <time>2016-11-08T13:18:41Z</time>
      </trkpt>
      <trkpt lat="47.36856" lon="4.97816">
        <ele>431</ele>
        <time>2016-11-08T13:18:51Z</time>
      </trkpt>
      <trkpt lat="47.36862" lon="4.97806">
        <ele>430.1</ele>
        <time>2016-11-08T13:19:00Z</time>
      </trkpt>
      <trkpt lat="47.36871" lon="4.97797">
        <ele>429.8</ele>
        <time>2016-11-08T13:19:07Z</time>
      </trkpt>
      <trkpt lat="47.36879" lon="4.9779">
        <ele>429.8</ele>
        <time>2016-11-08T13:19:15Z</time>
      </trkpt>
      <trkpt lat="47.36888" lon="4.97784">
        <ele>429.6</ele>
        <time>2016-11-08T13:19:23Z</time>
      </trkpt>
      <trkpt lat="47.36897" lon="4.9778">
        <ele>429.3</ele>
        <time>2016-11-08T13:19:30Z</time>
      </trkpt>
      <trkpt lat="47.36905" lon="4.9777">
        <ele>428.8</ele>
        <time>2016-11-08T13:19:38Z</time>
      </trkpt>
      <trkpt lat="47.36913" lon="4.97762">
        <ele>428.5</ele>
        <time>2016-11-08T13:19:45Z</time>
      </trkpt>
      <trkpt lat="47.36922" lon="4.97755">
        <ele>428.4</ele>
        <time>2016-11-08T13:19:54Z</time>
      </trkpt>
      <trkpt lat="47.36931" lon="4.9775">
        <ele>427.9</ele>
        <time>2016-11-08T13:20:01Z</time>
      </trkpt>
      <trkpt lat="47.3694" lon="4.97744">
        <ele>427.5</ele>
        <time>2016-11-08T13:20:09Z</time>
      </trkpt>
      <trkpt lat="47.36948" lon="4.97737">
        <ele>427.5</ele>
        <time>2016-11-08T13:20:17Z</time>
      </trkpt>
      <trkpt lat="47.36956" lon="4.97731">
        <ele>427.5</ele>
        <time>2016-11-08T13:20:25Z</time>
      </trkpt>
      <trkpt lat="47.36967" lon="4.97728">
        <ele>426.9</ele>
        <time>2016-11-08T13:20:34Z</time>
      </trkpt>
      <trkpt lat="47.36975" lon="4.97721">
        <ele>426</ele>
        <time>2016-11-08T13:20:41Z</time>
      </trkpt>
      <trkpt lat="47.36983" lon="4.97712">
        <ele>424.9</ele>
        <time>2016-11-08T13:20:50Z</time>
      </trkpt>
      <trkpt lat="47.36992" lon="4.97707">
        <ele>424.6</ele>
        <time>2016-11-08T13:20:59Z</time>
      </trkpt>
      <trkpt lat="47.37001" lon="4.977">
        <ele>424.2</ele>
        <time>2016-11-08T13:21:09Z</time>
      </trkpt>
      <trkpt lat="47.3701" lon="4.97693">
        <ele>423.6</ele>
        <time>2016-11-08T13:21:16Z</time>
      </trkpt>
      <trkpt lat="47.37018" lon="4.97686">
        <ele>423.1</ele>
        <time>2016-11-08T13:21:26Z</time>
      </trkpt>
      <trkpt lat="47.37028" lon="4.9768">
        <ele>422.6</ele>
        <time>2016-11-08T13:21:33Z</time>
      </trkpt>
      <trkpt lat="47.37036" lon="4.97675">
        <ele>422.8</ele>
        <time>2016-11-08T13:21:41Z</time>
      </trkpt>
      <trkpt lat="47.37045" lon="4.97671">
        <ele>422</ele>
        <time>2016-11-08T13:21:51Z</time>
      </trkpt>
      <trkpt lat="47.37053" lon="4.97666">
        <ele>421.1</ele>
        <time>2016-11-08T13:22:01Z</time>
      </trkpt>
      <trkpt lat="47.37062" lon="4.97663">
        <ele>420</ele>
        <time>2016-11-08T13:22:09Z</time>
      </trkpt>
      <trkpt lat="47.37071" lon="4.97656">
        <ele>419.7</ele>
        <time>2016-11-08T13:22:19Z</time>
      </trkpt>
      <trkpt lat="47.3708" lon="4.97655">
        <ele>419.3</ele>
        <time>2016-11-08T13:22:28Z</time>
      </trkpt>
      <trkpt lat="47.3709" lon="4.97653">
        <ele>418.8</ele>
        <time>2016-11-08T13:22:34Z</time>
      </trkpt>
      <trkpt lat="47.37099" lon="4.97651">
        <ele>417.9</ele>
        <time>2016-11-08T13:22:42Z</time>
      </trkpt>
      <trkpt lat="47.37108" lon="4.97645">
        <ele>417.5</ele>
        <time>2016-11-08T13:22:51Z</time>
      </trkpt>
      <trkpt lat="47.37118" lon="4.97643">
        <ele>417.8</ele>
        <time>2016-11-08T13:22:59Z</time>
      </trkpt>
      <trkpt lat="47.37127" lon="4.97639">
        <ele>417.7</ele>
        <time>2016-11-08T13:23:08Z</time>
      </trkpt>
      <trkpt lat="47.37135" lon="4.97634">
        <ele>416.6</ele>
        <time>2016-11-08T13:23:17Z</time>
      </trkpt>
      <trkpt lat="47.37144" lon="4.97629">
        <ele>416.5</ele>
        <time>2016-11-08T13:23:25Z</time>
      </trkpt>
      <trkpt lat="47.37153" lon="4.97625">
        <ele>415.9</ele>
        <time>2016-11-08T13:23:34Z</time>
      </trkpt>
      <trkpt lat="47.37163" lon="4.97623">
        <ele>415.5</ele>
        <time>2016-11-08T13:23:42Z</time>
      </trkpt>
      <trkpt lat="47.37172" lon="4.97619">
        <ele>414.7</ele>
        <time>2016-11-08T13:23:50Z</time>
      </trkpt>
      <trkpt lat="47.37181" lon="4.97616">
        <ele>414.5</ele>
        <time>2016-11-08T13:23:55Z</time>
      </trkpt>
      <trkpt lat="47.3719" lon="4.97612">
        <ele>414.5</ele>
        <time>2016-11-08T13:24:03Z</time>
      </trkpt>
      <trkpt lat="47.37198" lon="4.97608">
        <ele>414.2</ele>
        <time>2016-11-08T13:24:10Z</time>
      </trkpt>
      <trkpt lat="47.37207" lon="4.97602">
        <ele>413.5</ele>
        <time>2016-11-08T13:24:20Z</time>
      </trkpt>
      <trkpt lat="47.37217" lon="4.97602">
        <ele>413.4</ele>
        <time>2016-11-08T13:24:29Z</time>
      </trkpt>
      <trkpt lat="47.37227" lon="4.97597">
        <ele>412.8</ele>
        <time>2016-11-08T13:24:39Z</time>
      </trkpt>
      <trkpt lat="47.37236" lon="4.97591">
        <ele>412.5</ele>
        <time>2016-11-08T13:24:46Z</time>
      </trkpt>
      <trkpt lat="47.37245" lon="4.97584">
        <ele>412.1</ele>
        <time>2016-11-08T13:24:54Z</time>
      </trkpt>
      <trkpt lat="47.37253" lon="4.97577">
        <ele>411.7</ele>
        <time>2016-11-08T13:25:02Z</time>
      </trkpt>
      <trkpt lat="47.37262" lon="4.9757">
        <ele>410.7</ele>
        <time>2016-11-08T13:25:10Z</time>
      </trkpt>
      <trkpt lat="47.3727" lon="4.97562">
        <ele>409</ele>
        <time>2016-11-08T13:25:20Z</time>
      </trkpt>
      <trkpt lat="47.37279" lon="4.97558">
        <ele>407.4</ele>
        <time>2016-11-08T13:25:28Z</time>
      </trkpt>
      <trkpt lat="47.37288" lon="4.97551">
        <ele>405</ele>
        <time>2016-11-08T13:25:38Z</time>
      </trkpt>
      <trkpt lat="47.37296" lon="4.97544">
        <ele>403.4</ele>
        <time>2016-11-08T13:25:46Z</time>
      </trkpt>
      <trkpt lat="47.37304" lon="4.97537">
        <ele>402.3</ele>
        <time>2016-11-08T13:25:53Z</time>
      </trkpt>
      <trkpt lat="47.37312" lon="4.97529">
        <ele>401.1</ele>
        <time>2016-11-08T13:26:00Z</time>
      </trkpt>
      <trkpt lat="47.3732" lon="4.97522">
        <ele>398.3</ele>
        <time>2016-11-08T13:26:10Z</time>
      </trkpt>
      <trkpt lat="47.3733" lon="4.97515">
        <ele>397.2</ele>
        <time>2016-11-08T13:26:19Z</time>
      </trkpt>
      <trkpt lat="47.37339" lon="4.97509">
        <ele>396.7</ele>
        <time>2016-11-08T13:26:27Z</time>
      </trkpt>
      <trkpt lat="47.37347" lon="4.97502">
        <ele>396.1</ele>
        <time>2016-11-08T13:26:34Z</time>
      </trkpt>
      <trkpt lat="47.37355" lon="4.97495">
        <ele>395.5</ele>
        <time>2016-11-08T13:26:44Z</time>
      </trkpt>
      <trkpt lat="47.37364" lon="4.97489">
        <ele>394.4</ele>
        <time>2016-11-08T13:26:54Z</time>
      </trkpt>
      <trkpt lat="47.37372" lon="4.97481">
        <ele>393.2</ele>
        <time>2016-11-08T13:27:03Z</time>
      </trkpt>
      <trkpt lat="47.37381" lon="4.97476">
        <ele>392.1</ele>
        <time>2016-11-08T13:27:11Z</time>
      </trkpt>
      <trkpt lat="47.37389" lon="4.97468">
        <ele>391.3</ele>
        <time>2016-11-08T13:27:18Z</time>
      </trkpt>
      <trkpt lat="47.37398" lon="4.97462">
        <ele>389.9</ele>
        <time>2016-11-08T13:27:25Z</time>
      </trkpt>
      <trkpt lat="47.37408" lon="4.97457">
        <ele>388.8</ele>
        <time>2016-11-08T13:27:33Z</time>
      </trkpt>
      <trkpt lat="47.37415" lon="4.9745">
        <ele>387.5</ele>
        <time>2016-11-08T13:27:41Z</time>
      </trkpt>
      <trkpt lat="47.37423" lon="4.97444">
        <ele>385.3</ele>
        <time>2016-11-08T13:27:51Z</time>
      </trkpt>
      <trkpt lat="47.37431" lon="4.97435">
        <ele>383.5</ele>
        <time>2016-11-08T13:28:00Z</time>
      </trkpt>
      <trkpt lat="47.3744" lon="4.97429">
        <ele>381.7</ele>
        <time>2016-11-08T13:28:08Z</time>
      </trkpt>
      <trkpt lat="47.3745" lon="4.97424">
        <ele>380.8</ele>
        <time>2016-11-08T13:28:14Z</time>
      </trkpt>
      <trkpt lat="47.37458" lon="4.97417">
        <ele>379.2</ele>
        <time>2016-11-08T13:28:21Z</time>
      </trkpt>
      <trkpt lat="47.37466" lon="4.97409">
        <ele>377.6</ele>
        <time>2016-11-08T13:28:31Z</time>
      </trkpt>
      <trkpt lat="47.37474" lon="4.974">
        <ele>376.5</ele>
        <time>2016-11-08T13:28:39Z</time>
      </trkpt>
      <trkpt lat="47.37483" lon="4.97391">
        <ele>376.4</ele>
        <time>2016-11-08T13:28:44Z</time>
      </trkpt>
      <trkpt lat="47.37493" lon="4.97385">
        <ele>376.4</ele>
        <time>2016-11-08T13:28:49Z</time>
      </trkpt>
      <trkpt lat="47.37501" lon="4.97376">
        <ele>377</ele>
        <time>2016-11-08T13:28:59Z</time>
      </trkpt>
      <trkpt lat="47.37505" lon="4.97363">
        <ele>377</ele>
        <time>2016-11-08T13:29:06Z</time>
      </trkpt>
      <trkpt lat="47.3751" lon="4.97351">
        <ele>377.2</ele>
        <time>2016-11-08T13:29:14Z</time>
      </trkpt>
      <trkpt lat="47.37516" lon="4.9734">
        <ele>377.2</ele>
        <time>2016-11-08T13:29:21Z</time>
      </trkpt>
      <trkpt lat="47.37524" lon="4.97333">
        <ele>377.3</ele>
        <time>2016-11-08T13:29:27Z</time>
      </trkpt>
      <trkpt lat="47.37529" lon="4.9732">
        <ele>377.3</ele>
        <time>2016-11-08T13:29:33Z</time>
      </trkpt>
      <trkpt lat="47.37534" lon="4.97309">
        <ele>377.4</ele>
        <time>2016-11-08T13:29:42Z</time>
      </trkpt>
      <trkpt lat="47.37538" lon="4.97297">
        <ele>378.2</ele>
        <time>2016-11-08T13:29:51Z</time>
      </trkpt>
      <trkpt lat="47.37538" lon="4.97283">
        <ele>378.8</ele>
        <time>2016-11-08T13:29:58Z</time>
      </trkpt>
      <trkpt lat="47.37543" lon="4.97269">
        <ele>379</ele>
        <time>2016-11-08T13:30:05Z</time>
      </trkpt>
      <trkpt lat="47.37546" lon="4.97256">
        <ele>378.8</ele>
        <time>2016-11-08T13:30:13Z</time>
      </trkpt>
      <trkpt lat="47.37549" lon="4.97242">
        <ele>378.5</ele>
        <time>2016-11-08T13:30:19Z</time>
      </trkpt>
      <trkpt lat="47.37553" lon="4.9723">
        <ele>378.8</ele>
        <time>2016-11-08T13:30:28Z</time>
      </trkpt>
      <trkpt lat="47.37555" lon="4.97216">
        <ele>378.9</ele>
        <time>2016-11-08T13:30:35Z</time>
      </trkpt>
      <trkpt lat="47.37559" lon="4.97204">
        <ele>378.7</ele>
        <time>2016-11-08T13:30:42Z</time>
      </trkpt>
      <trkpt lat="47.37566" lon="4.97192">
        <ele>380</ele>
        <time>2016-11-08T13:30:54Z</time>
      </trkpt>
      <trkpt lat="47.37574" lon="4.97182">
        <ele>380.5</ele>
        <time>2016-11-08T13:31:01Z</time>
      </trkpt>
      <trkpt lat="47.37581" lon="4.97172">
        <ele>381.4</ele>
        <time>2016-11-08T13:31:09Z</time>
      </trkpt>
      <trkpt lat="47.37588" lon="4.97162">
        <ele>382.7</ele>
        <time>2016-11-08T13:31:20Z</time>
      </trkpt>
      <trkpt lat="47.37596" lon="4.97154">
        <ele>384</ele>
        <time>2016-11-08T13:31:30Z</time>
      </trkpt>
      <trkpt lat="47.37604" lon="4.97145">
        <ele>384.9</ele>
        <time>2016-11-08T13:31:39Z</time>
      </trkpt>
      <trkpt lat="47.37611" lon="4.97137">
        <ele>386.3</ele>
        <time>2016-11-08T13:31:48Z</time>
      </trkpt>
      <trkpt lat="47.37619" lon="4.97129">
        <ele>387.7</ele>
        <time>2016-11-08T13:31:56Z</time>
      </trkpt>
      <trkpt lat="47.37627" lon="4.9712">
        <ele>389.1</ele>
        <time>2016-11-08T13:32:06Z</time>
      </trkpt>
      <trkpt lat="47.37634" lon="4.97113">
        <ele>389.4</ele>
        <time>2016-11-08T13:32:15Z</time>
      </trkpt>
      <trkpt lat="47.37642" lon="4.97106">
        <ele>390.4</ele>
        <time>2016-11-08T13:32:23Z</time>
      </trkpt>
      <trkpt lat="47.37651" lon="4.97095">
        <ele>391</ele>
        <time>2016-11-08T13:32:31Z</time>
      </trkpt>
      <trkpt lat="47.37658" lon="4.97086">
        <ele>391.2</ele>
        <time>2016-11-08T13:32:40Z</time>
      </trkpt>
      <trkpt lat="47.37665" lon="4.97077">
        <ele>391.8</ele>
        <time>2016-11-08T13:32:49Z</time>
      </trkpt>
      <trkpt lat="47.37672" lon="4.97069">
        <ele>391.9</ele>
        <time>2016-11-08T13:32:55Z</time>
      </trkpt>
      <trkpt lat="47.37679" lon="4.97061">
        <ele>392.3</ele>
        <time>2016-11-08T13:33:03Z</time>
      </trkpt>
      <trkpt lat="47.37687" lon="4.97052">
        <ele>392.6</ele>
        <time>2016-11-08T13:33:12Z</time>
      </trkpt>
      <trkpt lat="47.37694" lon="4.97043">
        <ele>393.9</ele>
        <time>2016-11-08T13:33:20Z</time>
      </trkpt>
      <trkpt lat="47.37702" lon="4.97034">
        <ele>395.3</ele>
        <time>2016-11-08T13:33:27Z</time>
      </trkpt>
      <trkpt lat="47.37709" lon="4.97026">
        <ele>396.6</ele>
        <time>2016-11-08T13:33:35Z</time>
      </trkpt>
      <trkpt lat="47.37716" lon="4.97016">
        <ele>398.3</ele>
        <time>2016-11-08T13:33:45Z</time>
      </trkpt>
      <trkpt lat="47.37724" lon="4.97009">
        <ele>399.3</ele>
        <time>2016-11-08T13:33:53Z</time>
      </trkpt>
      <trkpt lat="47.37732" lon="4.97">
        <ele>399.2</ele>
        <time>2016-11-08T13:34:01Z</time>
      </trkpt>
      <trkpt lat="47.37739" lon="4.96989">
        <ele>399.5</ele>
        <time>2016-11-08T13:34:11Z</time>
      </trkpt>
      <trkpt lat="47.37745" lon="4.96979">
        <ele>399.6</ele>
        <time>2016-11-08T13:34:18Z</time>
      </trkpt>
      <trkpt lat="47.37752" lon="4.96969">
        <ele>400.5</ele>
        <time>2016-11-08T13:34:27Z</time>
      </trkpt>
      <trkpt lat="47.3776" lon="4.96961">
        <ele>401.2</ele>
        <time>2016-11-08T13:34:36Z</time>
      </trkpt>
      <trkpt lat="47.37767" lon="4.96952">
        <ele>402</ele>
        <time>2016-11-08T13:34:43Z</time>
      </trkpt>
      <trkpt lat="47.37772" lon="4.96941">
        <ele>402.6</ele>
        <time>2016-11-08T13:34:51Z</time>
      </trkpt>
      <trkpt lat="47.37778" lon="4.9693">
        <ele>403.4</ele>
        <time>2016-11-08T13:35:01Z</time>
      </trkpt>
      <trkpt lat="47.37786" lon="4.9692">
        <ele>403.8</ele>
        <time>2016-11-08T13:35:09Z</time>
      </trkpt>
      <trkpt lat="47.37792" lon="4.96909">
        <ele>404.3</ele>
        <time>2016-11-08T13:35:18Z</time>
      </trkpt>
      <trkpt lat="47.37799" lon="4.96899">
        <ele>404.7</ele>
        <time>2016-11-08T13:35:28Z</time>
      </trkpt>
      <trkpt lat="47.37806" lon="4.96889">
        <ele>404.6</ele>
        <time>2016-11-08T13:35:37Z</time>
      </trkpt>
      <trkpt lat="47.37815" lon="4.9688">
        <ele>405.6</ele>
        <time>2016-11-08T13:35:46Z</time>
      </trkpt>
      <trkpt lat="47.37821" lon="4.96869">
        <ele>406.2</ele>
        <time>2016-11-08T13:35:53Z</time>
      </trkpt>
      <trkpt lat="47.37828" lon="4.9686">
        <ele>406.9</ele>
        <time>2016-11-08T13:36:02Z</time>
      </trkpt>
      <trkpt lat="47.37834" lon="4.96848">
        <ele>411.7</ele>
        <time>2016-11-08T13:40:45Z</time>
      </trkpt>
      <trkpt lat="47.37841" lon="4.96837">
        <ele>412</ele>
        <time>2016-11-08T13:40:53Z</time>
      </trkpt>
      <trkpt lat="47.37847" lon="4.96827">
        <ele>412.4</ele>
        <time>2016-11-08T13:41:02Z</time>
      </trkpt>
      <trkpt lat="47.37854" lon="4.96817">
        <ele>414.8</ele>
        <time>2016-11-08T13:41:19Z</time>
      </trkpt>
      <trkpt lat="47.37861" lon="4.96808">
        <ele>415.8</ele>
        <time>2016-11-08T13:41:29Z</time>
      </trkpt>
      <trkpt lat="47.37867" lon="4.96798">
        <ele>416.6</ele>
        <time>2016-11-08T13:41:40Z</time>
      </trkpt>
      <trkpt lat="47.37875" lon="4.96788">
        <ele>416.5</ele>
        <time>2016-11-08T13:41:48Z</time>
      </trkpt>
      <trkpt lat="47.37881" lon="4.96777">
        <ele>417</ele>
        <time>2016-11-08T13:41:57Z</time>
      </trkpt>
      <trkpt lat="47.37888" lon="4.96768">
        <ele>417.6</ele>
        <time>2016-11-08T13:42:05Z</time>
      </trkpt>
      <trkpt lat="47.37893" lon="4.96757">
        <ele>418</ele>
        <time>2016-11-08T13:42:16Z</time>
      </trkpt>
      <trkpt lat="47.379" lon="4.96747">
        <ele>418.4</ele>
        <time>2016-11-08T13:42:25Z</time>
      </trkpt>
      <trkpt lat="47.37907" lon="4.96737">
        <ele>418.9</ele>
        <time>2016-11-08T13:42:33Z</time>
      </trkpt>
      <trkpt lat="47.37913" lon="4.96727">
        <ele>419.8</ele>
        <time>2016-11-08T13:42:41Z</time>
      </trkpt>
      <trkpt lat="47.3792" lon="4.96716">
        <ele>420.9</ele>
        <time>2016-11-08T13:42:51Z</time>
      </trkpt>
      <trkpt lat="47.37927" lon="4.96707">
        <ele>421.5</ele>
        <time>2016-11-08T13:42:58Z</time>
      </trkpt>
      <trkpt lat="47.37935" lon="4.96698">
        <ele>422.4</ele>
        <time>2016-11-08T13:43:06Z</time>
      </trkpt>
      <trkpt lat="47.3794" lon="4.96687">
        <ele>422</ele>
        <time>2016-11-08T13:43:16Z</time>
      </trkpt>
      <trkpt lat="47.37948" lon="4.96678">
        <ele>422</ele>
        <time>2016-11-08T13:43:25Z</time>
      </trkpt>
      <trkpt lat="47.37955" lon="4.96669">
        <ele>422.1</ele>
        <time>2016-11-08T13:43:32Z</time>
      </trkpt>
      <trkpt lat="47.37963" lon="4.9666">
        <ele>421.4</ele>
        <time>2016-11-08T13:43:43Z</time>
      </trkpt>
      <trkpt lat="47.3797" lon="4.96652">
        <ele>420.6</ele>
        <time>2016-11-08T13:43:53Z</time>
      </trkpt>
      <trkpt lat="47.37978" lon="4.96643">
        <ele>420.7</ele>
        <time>2016-11-08T13:44:01Z</time>
      </trkpt>
      <trkpt lat="47.37984" lon="4.96633">
        <ele>420.7</ele>
        <time>2016-11-08T13:44:08Z</time>
      </trkpt>
      <trkpt lat="47.37993" lon="4.96625">
        <ele>420.5</ele>
        <time>2016-11-08T13:44:19Z</time>
      </trkpt>
      <trkpt lat="47.38002" lon="4.9662">
        <ele>420.3</ele>
        <time>2016-11-08T13:44:24Z</time>
      </trkpt>
      <trkpt lat="47.38011" lon="4.96616">
        <ele>420.7</ele>
        <time>2016-11-08T13:44:31Z</time>
      </trkpt>
      <trkpt lat="47.38019" lon="4.9661">
        <ele>421.6</ele>
        <time>2016-11-08T13:44:40Z</time>
      </trkpt>
      <trkpt lat="47.38029" lon="4.96609">
        <ele>422.2</ele>
        <time>2016-11-08T13:44:48Z</time>
      </trkpt>
      <trkpt lat="47.38039" lon="4.96609">
        <ele>422.2</ele>
        <time>2016-11-08T13:45:20Z</time>
      </trkpt>
      <trkpt lat="47.38048" lon="4.96608">
        <ele>422</ele>
        <time>2016-11-08T13:45:31Z</time>
      </trkpt>
      <trkpt lat="47.38057" lon="4.96608">
        <ele>421.7</ele>
        <time>2016-11-08T13:45:40Z</time>
      </trkpt>
      <trkpt lat="47.38066" lon="4.96606">
        <ele>421.2</ele>
        <time>2016-11-08T13:45:49Z</time>
      </trkpt>
      <trkpt lat="47.38075" lon="4.96602">
        <ele>420.9</ele>
        <time>2016-11-08T13:45:59Z</time>
      </trkpt>
      <trkpt lat="47.38084" lon="4.96599">
        <ele>420.8</ele>
        <time>2016-11-08T13:46:08Z</time>
      </trkpt>
      <trkpt lat="47.38093" lon="4.96596">
        <ele>420.6</ele>
        <time>2016-11-08T13:46:24Z</time>
      </trkpt>
      <trkpt lat="47.38101" lon="4.96589">
        <ele>420.6</ele>
        <time>2016-11-08T13:46:31Z</time>
      </trkpt>
      <trkpt lat="47.3811" lon="4.96582">
        <ele>421</ele>
        <time>2016-11-08T13:46:42Z</time>
      </trkpt>
      <trkpt lat="47.38118" lon="4.96576">
        <ele>421.2</ele>
        <time>2016-11-08T13:46:54Z</time>
      </trkpt>
      <trkpt lat="47.38127" lon="4.9657">
        <ele>420.7</ele>
        <time>2016-11-08T13:47:06Z</time>
      </trkpt>
      <trkpt lat="47.38134" lon="4.96562">
        <ele>420.1</ele>
        <time>2016-11-08T13:47:15Z</time>
      </trkpt>
      <trkpt lat="47.38142" lon="4.96551">
        <ele>419.6</ele>
        <time>2016-11-08T13:47:23Z</time>
      </trkpt>
      <trkpt lat="47.3815" lon="4.96543">
        <ele>419.1</ele>
        <time>2016-11-08T13:47:32Z</time>
      </trkpt>
      <trkpt lat="47.38158" lon="4.96536">
        <ele>419.3</ele>
        <time>2016-11-08T13:47:41Z</time>
      </trkpt>
      <trkpt lat="47.38164" lon="4.96526">
        <ele>419.1</ele>
        <time>2016-11-08T13:47:54Z</time>
      </trkpt>
      <trkpt lat="47.3817" lon="4.96514">
        <ele>418</ele>
        <time>2016-11-08T13:48:09Z</time>
      </trkpt>
      <trkpt lat="47.38179" lon="4.96508">
        <ele>418.4</ele>
        <time>2016-11-08T13:48:18Z</time>
      </trkpt>
      <trkpt lat="47.38187" lon="4.965">
        <ele>418.5</ele>
        <time>2016-11-08T13:48:29Z</time>
      </trkpt>
      <trkpt lat="47.38194" lon="4.96492">
        <ele>417.6</ele>
        <time>2016-11-08T13:48:45Z</time>
      </trkpt>
      <trkpt lat="47.38203" lon="4.96487">
        <ele>415.5</ele>
        <time>2016-11-08T13:48:55Z</time>
      </trkpt>
      <trkpt lat="47.38213" lon="4.96484">
        <ele>414.5</ele>
        <time>2016-11-08T13:49:02Z</time>
      </trkpt>
      <trkpt lat="47.38222" lon="4.96478">
        <ele>412.9</ele>
        <time>2016-11-08T13:49:16Z</time>
      </trkpt>
      <trkpt lat="47.38232" lon="4.96477">
        <ele>412.6</ele>
        <time>2016-11-08T13:49:24Z</time>
      </trkpt>
      <trkpt lat="47.38242" lon="4.96474">
        <ele>411.7</ele>
        <time>2016-11-08T13:49:32Z</time>
      </trkpt>
      <trkpt lat="47.38251" lon="4.96469">
        <ele>410.3</ele>
        <time>2016-11-08T13:49:50Z</time>
      </trkpt>
      <trkpt lat="47.3826" lon="4.96468">
        <ele>408.7</ele>
        <time>2016-11-08T13:50:06Z</time>
      </trkpt>
      <trkpt lat="47.3827" lon="4.96468">
        <ele>407.7</ele>
        <time>2016-11-08T13:50:15Z</time>
      </trkpt>
      <trkpt lat="47.3828" lon="4.96469">
        <ele>407.4</ele>
        <time>2016-11-08T13:50:18Z</time>
      </trkpt>
      <trkpt lat="47.38291" lon="4.96469">
        <ele>406.9</ele>
        <time>2016-11-08T13:50:29Z</time>
      </trkpt>
      <trkpt lat="47.38299" lon="4.96477">
        <ele>406.3</ele>
        <time>2016-11-08T13:50:38Z</time>
      </trkpt>
      <trkpt lat="47.38308" lon="4.96482">
        <ele>405.9</ele>
        <time>2016-11-08T13:50:52Z</time>
      </trkpt>
      <trkpt lat="47.38317" lon="4.96486">
        <ele>405.8</ele>
        <time>2016-11-08T13:50:58Z</time>
      </trkpt>
      <trkpt lat="47.38326" lon="4.96488">
        <ele>404.9</ele>
        <time>2016-11-08T13:51:12Z</time>
      </trkpt>
      <trkpt lat="47.38335" lon="4.96495">
        <ele>403.3</ele>
        <time>2016-11-08T13:51:28Z</time>
      </trkpt>
      <trkpt lat="47.38344" lon="4.96499">
        <ele>401.9</ele>
        <time>2016-11-08T13:51:41Z</time>
      </trkpt>
      <trkpt lat="47.38352" lon="4.96506">
        <ele>401</ele>
        <time>2016-11-08T13:52:00Z</time>
      </trkpt>
      <trkpt lat="47.38362" lon="4.96509">
        <ele>400.3</ele>
        <time>2016-11-08T13:52:05Z</time>
      </trkpt>
      <trkpt lat="47.38372" lon="4.96512">
        <ele>399.7</ele>
        <time>2016-11-08T13:52:12Z</time>
      </trkpt>
      <trkpt lat="47.38381" lon="4.96517">
        <ele>398.3</ele>
        <time>2016-11-08T13:52:30Z</time>
      </trkpt>
      <trkpt lat="47.38391" lon="4.96519">
        <ele>397.8</ele>
        <time>2016-11-08T13:52:35Z</time>
      </trkpt>
      <trkpt lat="47.38401" lon="4.96521">
        <ele>397.3</ele>
        <time>2016-11-08T13:52:39Z</time>
      </trkpt>
      <trkpt lat="47.38411" lon="4.96522">
        <ele>397</ele>
        <time>2016-11-08T13:52:49Z</time>
      </trkpt>
      <trkpt lat="47.38422" lon="4.96523">
        <ele>396.6</ele>
        <time>2016-11-08T13:53:00Z</time>
      </trkpt>
      <trkpt lat="47.38431" lon="4.96526">
        <ele>396.3</ele>
        <time>2016-11-08T13:53:09Z</time>
      </trkpt>
      <trkpt lat="47.38441" lon="4.9653">
        <ele>395.7</ele>
        <time>2016-11-08T13:53:14Z</time>
      </trkpt>
      <trkpt lat="47.38448" lon="4.9654">
        <ele>394.9</ele>
        <time>2016-11-08T13:53:33Z</time>
      </trkpt>
      <trkpt lat="47.38458" lon="4.96545">
        <ele>394.7</ele>
        <time>2016-11-08T13:53:48Z</time>
      </trkpt>
      <trkpt lat="47.38464" lon="4.96554">
        <ele>394.1</ele>
        <time>2016-11-08T13:53:57Z</time>
      </trkpt>
      <trkpt lat="47.38472" lon="4.96565">
        <ele>393.4</ele>
        <time>2016-11-08T13:54:03Z</time>
      </trkpt>
      <trkpt lat="47.38476" lon="4.96577">
        <ele>392.3</ele>
        <time>2016-11-08T13:54:18Z</time>
      </trkpt>
      <trkpt lat="47.38486" lon="4.96585">
        <ele>391.5</ele>
        <time>2016-11-08T13:54:25Z</time>
      </trkpt>
      <trkpt lat="47.38492" lon="4.96594">
        <ele>390.1</ele>
        <time>2016-11-08T13:54:34Z</time>
      </trkpt>
      <trkpt lat="47.38497" lon="4.96606">
        <ele>387.6</ele>
        <time>2016-11-08T13:54:43Z</time>
      </trkpt>
      <trkpt lat="47.38506" lon="4.9661">
        <ele>386.9</ele>
        <time>2016-11-08T13:54:46Z</time>
      </trkpt>
      <trkpt lat="47.38513" lon="4.96619">
        <ele>386</ele>
        <time>2016-11-08T13:54:51Z</time>
      </trkpt>
      <trkpt lat="47.3852" lon="4.96627">
        <ele>385.2</ele>
        <time>2016-11-08T13:54:59Z</time>
      </trkpt>
      <trkpt lat="47.38525" lon="4.96639">
        <ele>384.5</ele>
        <time>2016-11-08T13:55:05Z</time>
      </trkpt>
      <trkpt lat="47.38531" lon="4.9665">
        <ele>384</ele>
        <time>2016-11-08T13:55:13Z</time>
      </trkpt>
      <trkpt lat="47.38536" lon="4.96662">
        <ele>383.7</ele>
        <time>2016-11-08T13:55:22Z</time>
      </trkpt>
      <trkpt lat="47.38538" lon="4.96677">
        <ele>383.5</ele>
        <time>2016-11-08T13:55:31Z</time>
      </trkpt>
      <trkpt lat="47.38544" lon="4.96688">
        <ele>383.7</ele>
        <time>2016-11-08T13:55:39Z</time>
      </trkpt>
      <trkpt lat="47.38551" lon="4.96698">
        <ele>383.8</ele>
        <time>2016-11-08T13:55:47Z</time>
      </trkpt>
      <trkpt lat="47.38553" lon="4.96711">
        <ele>383.4</ele>
        <time>2016-11-08T13:55:59Z</time>
      </trkpt>
      <trkpt lat="47.3855" lon="4.96724">
        <ele>382.3</ele>
        <time>2016-11-08T13:56:08Z</time>
      </trkpt>
      <trkpt lat="47.3855" lon="4.96739">
        <ele>381.4</ele>
        <time>2016-11-08T13:56:13Z</time>
      </trkpt>
      <trkpt lat="47.38558" lon="4.9675">
        <ele>381</ele>
        <time>2016-11-08T13:56:19Z</time>
      </trkpt>
      <trkpt lat="47.38564" lon="4.9676">
        <ele>379.4</ele>
        <time>2016-11-08T13:56:33Z</time>
      </trkpt>
      <trkpt lat="47.3857" lon="4.96772">
        <ele>379.2</ele>
        <time>2016-11-08T13:56:39Z</time>
      </trkpt>
      <trkpt lat="47.38578" lon="4.96781">
        <ele>379.3</ele>
        <time>2016-11-08T13:56:47Z</time>
      </trkpt>
      <trkpt lat="47.38584" lon="4.96791">
        <ele>379.4</ele>
        <time>2016-11-08T13:56:55Z</time>
      </trkpt>
      <trkpt lat="47.3859" lon="4.96804">
        <ele>379.7</ele>
        <time>2016-11-08T13:57:03Z</time>
      </trkpt>
      <trkpt lat="47.38597" lon="4.96814">
        <ele>380.1</ele>
        <time>2016-11-08T13:57:11Z</time>
      </trkpt>
      <trkpt lat="47.38603" lon="4.96823">
        <ele>380.6</ele>
        <time>2016-11-08T13:57:25Z</time>
      </trkpt>
      <trkpt lat="47.38611" lon="4.96836">
        <ele>379.9</ele>
        <time>2016-11-08T13:57:36Z</time>
      </trkpt>
      <trkpt lat="47.3862" lon="4.9684">
        <ele>379.7</ele>
        <time>2016-11-08T13:57:43Z</time>
      </trkpt>
      <trkpt lat="47.38628" lon="4.96848">
        <ele>380.1</ele>
        <time>2016-11-08T13:57:52Z</time>
      </trkpt>
      <trkpt lat="47.38638" lon="4.96852">
        <ele>379.4</ele>
        <time>2016-11-08T13:57:59Z</time>
      </trkpt>
      <trkpt lat="47.38647" lon="4.96856">
        <ele>379</ele>
        <time>2016-11-08T13:58:03Z</time>
      </trkpt>
      <trkpt lat="47.38656" lon="4.9686">
        <ele>377.8</ele>
        <time>2016-11-08T13:58:12Z</time>
      </trkpt>
      <trkpt lat="47.38665" lon="4.96864">
        <ele>377.3</ele>
        <time>2016-11-08T13:58:23Z</time>
      </trkpt>
      <trkpt lat="47.38673" lon="4.96872">
        <ele>377.5</ele>
        <time>2016-11-08T13:58:37Z</time>
      </trkpt>
      <trkpt lat="47.38683" lon="4.96876">
        <ele>377.4</ele>
        <time>2016-11-08T13:58:43Z</time>
      </trkpt>
      <trkpt lat="47.38692" lon="4.96879">
        <ele>376</ele>
        <time>2016-11-08T13:58:55Z</time>
      </trkpt>
      <trkpt lat="47.38701" lon="4.96881">
        <ele>375.4</ele>
        <time>2016-11-08T13:59:01Z</time>
      </trkpt>
      <trkpt lat="47.38711" lon="4.96886">
        <ele>374</ele>
        <time>2016-11-08T13:59:07Z</time>
      </trkpt>
      <trkpt lat="47.38722" lon="4.96888">
        <ele>373.6</ele>
        <time>2016-11-08T13:59:18Z</time>
      </trkpt>
      <trkpt lat="47.38733" lon="4.96888">
        <ele>373.9</ele>
        <time>2016-11-08T13:59:22Z</time>
      </trkpt>
      <trkpt lat="47.38743" lon="4.96889">
        <ele>374.9</ele>
        <time>2016-11-08T13:59:32Z</time>
      </trkpt>
      <trkpt lat="47.38755" lon="4.9689">
        <ele>374.8</ele>
        <time>2016-11-08T13:59:43Z</time>
      </trkpt>
      <trkpt lat="47.38765" lon="4.96887">
        <ele>374.5</ele>
        <time>2016-11-08T13:59:58Z</time>
      </trkpt>
      <trkpt lat="47.38774" lon="4.96887">
        <ele>374.2</ele>
        <time>2016-11-08T14:00:08Z</time>
      </trkpt>
      <trkpt lat="47.38783" lon="4.96889">
        <ele>373.8</ele>
        <time>2016-11-08T14:00:13Z</time>
      </trkpt>
      <trkpt lat="47.38793" lon="4.9689">
        <ele>373.5</ele>
        <time>2016-11-08T14:00:23Z</time>
      </trkpt>
      <trkpt lat="47.38802" lon="4.96886">
        <ele>372.7</ele>
        <time>2016-11-08T14:00:31Z</time>
      </trkpt>
      <trkpt lat="47.38812" lon="4.96884">
        <ele>372.6</ele>
        <time>2016-11-08T14:00:37Z</time>
      </trkpt>
      <trkpt lat="47.38822" lon="4.96884">
        <ele>372.2</ele>
        <time>2016-11-08T14:00:48Z</time>
      </trkpt>
      <trkpt lat="47.38831" lon="4.96888">
        <ele>371.4</ele>
        <time>2016-11-08T14:00:57Z</time>
      </trkpt>
      <trkpt lat="47.3884" lon="4.96891">
        <ele>370.8</ele>
        <time>2016-11-08T14:01:01Z</time>
      </trkpt>
      <trkpt lat="47.38851" lon="4.96895">
        <ele>370.4</ele>
        <time>2016-11-08T14:01:05Z</time>
      </trkpt>
      <trkpt lat="47.3886" lon="4.969">
        <ele>370.5</ele>
        <time>2016-11-08T14:01:15Z</time>
      </trkpt>
      <trkpt lat="47.38869" lon="4.96903">
        <ele>369.7</ele>
        <time>2016-11-08T14:01:25Z</time>
      </trkpt>
      <trkpt lat="47.38878" lon="4.96909">
        <ele>369.6</ele>
        <time>2016-11-08T14:01:32Z</time>
      </trkpt>
      <trkpt lat="47.38887" lon="4.96914">
        <ele>370.1</ele>
        <time>2016-11-08T14:01:37Z</time>
      </trkpt>
      <trkpt lat="47.38896" lon="4.96919">
        <ele>370.4</ele>
        <time>2016-11-08T14:01:43Z</time>
      </trkpt>
      <trkpt lat="47.38905" lon="4.96922">
        <ele>370.9</ele>
        <time>2016-11-08T14:01:57Z</time>
      </trkpt>
      <trkpt lat="47.38917" lon="4.96925">
        <ele>370.5</ele>
        <time>2016-11-08T14:02:06Z</time>
      </trkpt>
      <trkpt lat="47.38925" lon="4.96932">
        <ele>370.5</ele>
        <time>2016-11-08T14:02:10Z</time>
      </trkpt>
      <trkpt lat="47.38934" lon="4.96938">
        <ele>370.6</ele>
        <time>2016-11-08T14:02:16Z</time>
      </trkpt>
      <trkpt lat="47.38943" lon="4.96942">
        <ele>370.2</ele>
        <time>2016-11-08T14:02:29Z</time>
      </trkpt>
      <trkpt lat="47.38951" lon="4.96948">
        <ele>369.6</ele>
        <time>2016-11-08T14:02:39Z</time>
      </trkpt>
      <trkpt lat="47.3896" lon="4.96954">
        <ele>368.5</ele>
        <time>2016-11-08T14:02:55Z</time>
      </trkpt>
      <trkpt lat="47.38969" lon="4.9696">
        <ele>367.9</ele>
        <time>2016-11-08T14:02:59Z</time>
      </trkpt>
      <trkpt lat="47.38979" lon="4.96964">
        <ele>367.1</ele>
        <time>2016-11-08T14:03:13Z</time>
      </trkpt>
      <trkpt lat="47.38987" lon="4.96972">
        <ele>364.8</ele>
        <time>2016-11-08T14:03:28Z</time>
      </trkpt>
      <trkpt lat="47.38997" lon="4.96975">
        <ele>363.2</ele>
        <time>2016-11-08T14:03:41Z</time>
      </trkpt>
      <trkpt lat="47.39004" lon="4.96983">
        <ele>361</ele>
        <time>2016-11-08T14:03:51Z</time>
      </trkpt>
      <trkpt lat="47.39012" lon="4.9699">
        <ele>359.7</ele>
        <time>2016-11-08T14:03:59Z</time>
      </trkpt>
      <trkpt lat="47.39022" lon="4.96997">
        <ele>358.6</ele>
        <time>2016-11-08T14:04:08Z</time>
      </trkpt>
      <trkpt lat="47.39031" lon="4.97005">
        <ele>358.1</ele>
        <time>2016-11-08T14:04:13Z</time>
      </trkpt>
      <trkpt lat="47.39039" lon="4.97009">
        <ele>357.8</ele>
        <time>2016-11-08T14:04:20Z</time>
      </trkpt>
      <trkpt lat="47.39048" lon="4.97013">
        <ele>357.2</ele>
        <time>2016-11-08T14:04:27Z</time>
      </trkpt>
      <trkpt lat="47.39057" lon="4.97025">
        <ele>355.9</ele>
        <time>2016-11-08T14:04:38Z</time>
      </trkpt>
      <trkpt lat="47.39064" lon="4.97037">
        <ele>354.8</ele>
        <time>2016-11-08T14:04:48Z</time>
      </trkpt>
      <trkpt lat="47.39071" lon="4.97045">
        <ele>354.4</ele>
        <time>2016-11-08T14:04:55Z</time>
      </trkpt>
      <trkpt lat="47.3908" lon="4.97052">
        <ele>353.6</ele>
        <time>2016-11-08T14:05:10Z</time>
      </trkpt>
      <trkpt lat="47.39086" lon="4.97063">
        <ele>353</ele>
        <time>2016-11-08T14:05:16Z</time>
      </trkpt>
      <trkpt lat="47.39088" lon="4.97076">
        <ele>353</ele>
        <time>2016-11-08T14:05:23Z</time>
      </trkpt>
      <trkpt lat="47.39093" lon="4.9709">
        <ele>352.5</ele>
        <time>2016-11-08T14:05:32Z</time>
      </trkpt>
      <trkpt lat="47.39095" lon="4.97103">
        <ele>352.4</ele>
        <time>2016-11-08T14:05:41Z</time>
      </trkpt>
      <trkpt lat="47.39099" lon="4.97116">
        <ele>352.2</ele>
        <time>2016-11-08T14:05:51Z</time>
      </trkpt>
      <trkpt lat="47.39103" lon="4.97129">
        <ele>352.2</ele>
        <time>2016-11-08T14:05:59Z</time>
      </trkpt>
      <trkpt lat="47.39111" lon="4.97142">
        <ele>351.9</ele>
        <time>2016-11-08T14:06:03Z</time>
      </trkpt>
      <trkpt lat="47.39115" lon="4.97153">
        <ele>351.7</ele>
        <time>2016-11-08T14:06:08Z</time>
      </trkpt>
      <trkpt lat="47.39113" lon="4.97173">
        <ele>351.6</ele>
        <time>2016-11-08T14:06:21Z</time>
      </trkpt>
      <trkpt lat="47.3911" lon="4.97186">
        <ele>351.2</ele>
        <time>2016-11-08T14:06:31Z</time>
      </trkpt>
      <trkpt lat="47.39117" lon="4.97195">
        <ele>351.1</ele>
        <time>2016-11-08T14:06:36Z</time>
      </trkpt>
      <trkpt lat="47.39119" lon="4.97208">
        <ele>351.5</ele>
        <time>2016-11-08T14:06:45Z</time>
      </trkpt>
      <trkpt lat="47.39126" lon="4.9722">
        <ele>351.5</ele>
        <time>2016-11-08T14:06:55Z</time>
      </trkpt>
      <trkpt lat="47.39131" lon="4.97232">
        <ele>351.2</ele>
        <time>2016-11-08T14:07:01Z</time>
      </trkpt>
      <trkpt lat="47.39136" lon="4.97243">
        <ele>351.1</ele>
        <time>2016-11-08T14:07:07Z</time>
      </trkpt>
      <trkpt lat="47.39141" lon="4.97255">
        <ele>350.9</ele>
        <time>2016-11-08T14:07:17Z</time>
      </trkpt>
      <trkpt lat="47.39146" lon="4.97267">
        <ele>350.5</ele>
        <time>2016-11-08T14:07:28Z</time>
      </trkpt>
      <trkpt lat="47.39152" lon="4.97281">
        <ele>350.6</ele>
        <time>2016-11-08T14:07:35Z</time>
      </trkpt>
      <trkpt lat="47.3916" lon="4.97289">
        <ele>350.8</ele>
        <time>2016-11-08T14:07:40Z</time>
      </trkpt>
      <trkpt lat="47.39169" lon="4.97297">
        <ele>351.1</ele>
        <time>2016-11-08T14:07:46Z</time>
      </trkpt>
      <trkpt lat="47.39178" lon="4.97301">
        <ele>350.5</ele>
        <time>2016-11-08T14:07:58Z</time>
      </trkpt>
      <trkpt lat="47.39187" lon="4.97308">
        <ele>350.8</ele>
        <time>2016-11-08T14:08:10Z</time>
      </trkpt>
      <trkpt lat="47.39196" lon="4.97311">
        <ele>350.3</ele>
        <time>2016-11-08T14:08:20Z</time>
      </trkpt>
      <trkpt lat="47.39203" lon="4.9732">
        <ele>349.3</ele>
        <time>2016-11-08T14:08:48Z</time>
      </trkpt>
      <trkpt lat="47.39212" lon="4.97323">
        <ele>348.9</ele>
        <time>2016-11-08T14:09:13Z</time>
      </trkpt>
      <trkpt lat="47.39222" lon="4.97327">
        <ele>349.6</ele>
        <time>2016-11-08T14:09:33Z</time>
      </trkpt>
      <trkpt lat="47.39231" lon="4.9733">
        <ele>349.8</ele>
        <time>2016-11-08T14:09:41Z</time>
      </trkpt>
      <trkpt lat="47.3924" lon="4.97333">
        <ele>349.7</ele>
        <time>2016-11-08T14:09:51Z</time>
      </trkpt>
      <trkpt lat="47.3925" lon="4.97332">
        <ele>349.3</ele>
        <time>2016-11-08T14:10:05Z</time>
      </trkpt>
      <trkpt lat="47.39258" lon="4.97334">
        <ele>348.8</ele>
        <time>2016-11-08T14:10:10Z</time>
      </trkpt>
      <trkpt lat="47.39267" lon="4.97338">
        <ele>347.4</ele>
        <time>2016-11-08T14:10:21Z</time>
      </trkpt>
      <trkpt lat="47.39277" lon="4.97339">
        <ele>346</ele>
        <time>2016-11-08T14:10:33Z</time>
      </trkpt>
      <trkpt lat="47.3929" lon="4.97341">
        <ele>345.7</ele>
        <time>2016-11-08T14:10:39Z</time>
      </trkpt>
      <trkpt lat="47.39299" lon="4.97344">
        <ele>345.8</ele>
        <time>2016-11-08T14:10:50Z</time>
      </trkpt>
      <trkpt lat="47.39308" lon="4.97341">
        <ele>342.7</ele>
        <time>2016-11-08T14:12:27Z</time>
      </trkpt>
      <trkpt lat="47.39317" lon="4.97345">
        <ele>341.5</ele>
        <time>2016-11-08T14:13:08Z</time>
      </trkpt>
      <trkpt lat="47.39326" lon="4.97346">
        <ele>342.3</ele>
        <time>2016-11-08T14:13:32Z</time>
      </trkpt>
      <trkpt lat="47.39334" lon="4.97352">
        <ele>341.9</ele>
        <time>2016-11-08T14:13:46Z</time>
      </trkpt>
      <trkpt lat="47.39343" lon="4.97357">
        <ele>342.2</ele>
        <time>2016-11-08T14:13:52Z</time>
      </trkpt>
      <trkpt lat="47.39352" lon="4.97361">
        <ele>342.4</ele>
        <time>2016-11-08T14:14:05Z</time>
      </trkpt>
      <trkpt lat="47.39361" lon="4.97366">
        <ele>342.1</ele>
        <time>2016-11-08T14:14:26Z</time>
      </trkpt>
      <trkpt lat="47.39367" lon="4.97378">
        <ele>340.1</ele>
        <time>2016-11-08T14:14:42Z</time>
      </trkpt>
      <trkpt lat="47.39372" lon="4.97388">
        <ele>339.9</ele>
        <time>2016-11-08T14:14:45Z</time>
      </trkpt>
      <trkpt lat="47.3938" lon="4.97396">
        <ele>339.7</ele>
        <time>2016-11-08T14:14:51Z</time>
      </trkpt>
      <trkpt lat="47.39387" lon="4.97406">
        <ele>339.2</ele>
        <time>2016-11-08T14:14:58Z</time>
      </trkpt>
      <trkpt lat="47.39395" lon="4.97414">
        <ele>339.1</ele>
        <time>2016-11-08T14:15:05Z</time>
      </trkpt>
      <trkpt lat="47.39401" lon="4.97424">
        <ele>339.1</ele>
        <time>2016-11-08T14:15:13Z</time>
      </trkpt>
      <trkpt lat="47.39406" lon="4.97435">
        <ele>339.4</ele>
        <time>2016-11-08T14:15:21Z</time>
      </trkpt>
      <trkpt lat="47.39415" lon="4.97444">
        <ele>339.1</ele>
        <time>2016-11-08T14:15:30Z</time>
      </trkpt>
      <trkpt lat="47.3942" lon="4.97456">
        <ele>339.3</ele>
        <time>2016-11-08T14:15:40Z</time>
      </trkpt>
      <trkpt lat="47.39425" lon="4.97468">
        <ele>339.8</ele>
        <time>2016-11-08T14:15:47Z</time>
      </trkpt>
      <trkpt lat="47.39432" lon="4.97477">
        <ele>339.9</ele>
        <time>2016-11-08T14:15:58Z</time>
      </trkpt>
      <trkpt lat="47.39438" lon="4.97487">
        <ele>339.7</ele>
        <time>2016-11-08T14:16:05Z</time>
      </trkpt>
      <trkpt lat="47.39445" lon="4.97498">
        <ele>339.7</ele>
        <time>2016-11-08T14:16:12Z</time>
      </trkpt>
      <trkpt lat="47.39451" lon="4.97509">
        <ele>339.9</ele>
        <time>2016-11-08T14:16:20Z</time>
      </trkpt>
      <trkpt lat="47.39458" lon="4.97518">
        <ele>339.9</ele>
        <time>2016-11-08T14:16:28Z</time>
      </trkpt>
      <trkpt lat="47.39464" lon="4.97531">
        <ele>339.2</ele>
        <time>2016-11-08T14:16:39Z</time>
      </trkpt>
      <trkpt lat="47.39468" lon="4.97544">
        <ele>338.2</ele>
        <time>2016-11-08T14:16:48Z</time>
      </trkpt>
      <trkpt lat="47.39475" lon="4.97556">
        <ele>338.2</ele>
        <time>2016-11-08T14:16:55Z</time>
      </trkpt>
      <trkpt lat="47.39481" lon="4.97565">
        <ele>338.8</ele>
        <time>2016-11-08T14:17:02Z</time>
      </trkpt>
      <trkpt lat="47.39482" lon="4.97579">
        <ele>339.1</ele>
        <time>2016-11-08T14:17:10Z</time>
      </trkpt>
      <trkpt lat="47.39485" lon="4.97592">
        <ele>339.3</ele>
        <time>2016-11-08T14:17:19Z</time>
      </trkpt>
      <trkpt lat="47.39492" lon="4.97602">
        <ele>339.7</ele>
        <time>2016-11-08T14:17:28Z</time>
      </trkpt>
      <trkpt lat="47.39498" lon="4.97614">
        <ele>339.3</ele>
        <time>2016-11-08T14:17:37Z</time>
      </trkpt>
      <trkpt lat="47.39505" lon="4.97623">
        <ele>338.8</ele>
        <time>2016-11-08T14:17:46Z</time>
      </trkpt>
      <trkpt lat="47.39513" lon="4.97631">
        <ele>339.1</ele>
        <time>2016-11-08T14:17:54Z</time>
      </trkpt>
      <trkpt lat="47.3952" lon="4.97645">
        <ele>339.4</ele>
        <time>2016-11-08T14:18:07Z</time>
      </trkpt>
      <trkpt lat="47.39527" lon="4.97653">
        <ele>338.9</ele>
        <time>2016-11-08T14:18:19Z</time>
      </trkpt>
      <trkpt lat="47.39536" lon="4.97659">
        <ele>338.6</ele>
        <time>2016-11-08T14:18:25Z</time>
      </trkpt>
      <trkpt lat="47.39544" lon="4.97666">
        <ele>338.2</ele>
        <time>2016-11-08T14:18:31Z</time>
      </trkpt>
      <trkpt lat="47.39552" lon="4.97675">
        <ele>337.1</ele>
        <time>2016-11-08T14:18:44Z</time>
      </trkpt>
      <trkpt lat="47.3956" lon="4.97684">
        <ele>336.3</ele>
        <time>2016-11-08T14:18:54Z</time>
      </trkpt>
      <trkpt lat="47.39566" lon="4.97694">
        <ele>335.8</ele>
        <time>2016-11-08T14:19:05Z</time>
      </trkpt>
      <trkpt lat="47.39575" lon="4.97702">
        <ele>335.2</ele>
        <time>2016-11-08T14:19:13Z</time>
      </trkpt>
      <trkpt lat="47.39584" lon="4.97709">
        <ele>334.4</ele>
        <time>2016-11-08T14:19:20Z</time>
      </trkpt>
      <trkpt lat="47.39592" lon="4.97718">
        <ele>333.5</ele>
        <time>2016-11-08T14:19:29Z</time>
      </trkpt>
      <trkpt lat="47.39599" lon="4.97725">
        <ele>332.7</ele>
        <time>2016-11-08T14:19:40Z</time>
      </trkpt>
      <trkpt lat="47.39608" lon="4.9773">
        <ele>332.1</ele>
        <time>2016-11-08T14:19:46Z</time>
      </trkpt>
      <trkpt lat="47.39618" lon="4.97736">
        <ele>331.8</ele>
        <time>2016-11-08T14:19:59Z</time>
      </trkpt>
      <trkpt lat="47.39627" lon="4.97738">
        <ele>332</ele>
        <time>2016-11-08T14:20:04Z</time>
      </trkpt>
      <trkpt lat="47.39635" lon="4.97747">
        <ele>332.4</ele>
        <time>2016-11-08T14:20:13Z</time>
      </trkpt>
      <trkpt lat="47.39645" lon="4.97752">
        <ele>332.4</ele>
        <time>2016-11-08T14:20:22Z</time>
      </trkpt>
      <trkpt lat="47.39654" lon="4.97756">
        <ele>332.1</ele>
        <time>2016-11-08T14:20:31Z</time>
      </trkpt>
      <trkpt lat="47.39663" lon="4.97762">
        <ele>332.1</ele>
        <time>2016-11-08T14:20:38Z</time>
      </trkpt>
      <trkpt lat="47.39671" lon="4.97768">
        <ele>331.8</ele>
        <time>2016-11-08T14:20:46Z</time>
      </trkpt>
      <trkpt lat="47.39677" lon="4.97778">
        <ele>332.2</ele>
        <time>2016-11-08T14:20:52Z</time>
      </trkpt>
      <trkpt lat="47.39684" lon="4.97787">
        <ele>332.6</ele>
        <time>2016-11-08T14:21:05Z</time>
      </trkpt>
      <trkpt lat="47.39693" lon="4.97793">
        <ele>331.9</ele>
        <time>2016-11-08T14:21:12Z</time>
      </trkpt>
      <trkpt lat="47.39703" lon="4.97804">
        <ele>332.1</ele>
        <time>2016-11-08T14:21:24Z</time>
      </trkpt>
      <trkpt lat="47.39712" lon="4.97811">
        <ele>332.3</ele>
        <time>2016-11-08T14:21:29Z</time>
      </trkpt>
      <trkpt lat="47.3972" lon="4.97819">
        <ele>332.7</ele>
        <time>2016-11-08T14:21:36Z</time>
      </trkpt>
      <trkpt lat="47.39726" lon="4.9783">
        <ele>332.2</ele>
        <time>2016-11-08T14:21:48Z</time>
      </trkpt>
      <trkpt lat="47.39734" lon="4.97837">
        <ele>332.3</ele>
        <time>2016-11-08T14:21:54Z</time>
      </trkpt>
      <trkpt lat="47.39742" lon="4.97844">
        <ele>332.8</ele>
        <time>2016-11-08T14:22:02Z</time>
      </trkpt>
      <trkpt lat="47.3975" lon="4.97853">
        <ele>332.6</ele>
        <time>2016-11-08T14:22:11Z</time>
      </trkpt>
      <trkpt lat="47.39758" lon="4.97864">
        <ele>332.5</ele>
        <time>2016-11-08T14:22:19Z</time>
      </trkpt>
      <trkpt lat="47.39764" lon="4.97879">
        <ele>333.6</ele>
        <time>2016-11-08T14:22:31Z</time>
      </trkpt>
      <trkpt lat="47.39771" lon="4.97889">
        <ele>334.4</ele>
        <time>2016-11-08T14:22:40Z</time>
      </trkpt>
      <trkpt lat="47.39775" lon="4.97901">
        <ele>334.1</ele>
        <time>2016-11-08T14:22:50Z</time>
      </trkpt>
      <trkpt lat="47.39778" lon="4.97914">
        <ele>333.5</ele>
        <time>2016-11-08T14:23:39Z</time>
      </trkpt>
      <trkpt lat="47.39775" lon="4.97927">
        <ele>333.2</ele>
        <time>2016-11-08T14:23:46Z</time>
      </trkpt>
      <trkpt lat="47.39773" lon="4.97942">
        <ele>332.4</ele>
        <time>2016-11-08T14:23:57Z</time>
      </trkpt>
      <trkpt lat="47.39769" lon="4.97953">
        <ele>332.6</ele>
        <time>2016-11-08T14:24:06Z</time>
      </trkpt>
      <trkpt lat="47.39765" lon="4.97967">
        <ele>332.7</ele>
        <time>2016-11-08T14:24:13Z</time>
      </trkpt>
      <trkpt lat="47.39761" lon="4.9798">
        <ele>332.5</ele>
        <time>2016-11-08T14:24:22Z</time>
      </trkpt>
      <trkpt lat="47.3976" lon="4.97994">
        <ele>332.2</ele>
        <time>2016-11-08T14:24:29Z</time>
      </trkpt>
      <trkpt lat="47.3976" lon="4.98008">
        <ele>332.1</ele>
        <time>2016-11-08T14:24:37Z</time>
      </trkpt>
      <trkpt lat="47.39765" lon="4.98019">
        <ele>332.3</ele>
        <time>2016-11-08T14:24:47Z</time>
      </trkpt>
      <trkpt lat="47.39768" lon="4.98033">
        <ele>332.6</ele>
        <time>2016-11-08T14:24:54Z</time>
      </trkpt>
      <trkpt lat="47.39767" lon="4.98046">
        <ele>332.2</ele>
        <time>2016-11-08T14:25:06Z</time>
      </trkpt>
      <trkpt lat="47.39767" lon="4.9806">
        <ele>331.4</ele>
        <time>2016-11-08T14:25:16Z</time>
      </trkpt>
      <trkpt lat="47.3977" lon="4.98074">
        <ele>331.4</ele>
        <time>2016-11-08T14:25:24Z</time>
      </trkpt>
      <trkpt lat="47.39774" lon="4.98086">
        <ele>331.3</ele>
        <time>2016-11-08T14:25:30Z</time>
      </trkpt>
      <trkpt lat="47.39773" lon="4.981">
        <ele>330.6</ele>
        <time>2016-11-08T14:25:42Z</time>
      </trkpt>
      <trkpt lat="47.39774" lon="4.98114">
        <ele>330.4</ele>
        <time>2016-11-08T14:25:47Z</time>
      </trkpt>
      <trkpt lat="47.39775" lon="4.98127">
        <ele>330.8</ele>
        <time>2016-11-08T14:26:00Z</time>
      </trkpt>
      <trkpt lat="47.39776" lon="4.98142">
        <ele>331</ele>
        <time>2016-11-08T14:26:08Z</time>
      </trkpt>
      <trkpt lat="47.39779" lon="4.98156">
        <ele>331.4</ele>
        <time>2016-11-08T14:26:18Z</time>
      </trkpt>
      <trkpt lat="47.39784" lon="4.98169">
        <ele>331.8</ele>
        <time>2016-11-08T14:26:26Z</time>
      </trkpt>
      <trkpt lat="47.39788" lon="4.98181">
        <ele>332.2</ele>
        <time>2016-11-08T14:26:34Z</time>
      </trkpt>
      <trkpt lat="47.39792" lon="4.98194">
        <ele>332.1</ele>
        <time>2016-11-08T14:26:41Z</time>
      </trkpt>
      <trkpt lat="47.39793" lon="4.9821">
        <ele>331.5</ele>
        <time>2016-11-08T14:26:50Z</time>
      </trkpt>
      <trkpt lat="47.39791" lon="4.98223">
        <ele>331.2</ele>
        <time>2016-11-08T14:26:58Z</time>
      </trkpt>
      <trkpt lat="47.39792" lon="4.98237">
        <ele>331.1</ele>
        <time>2016-11-08T14:27:11Z</time>
      </trkpt>
      <trkpt lat="47.39792" lon="4.98251">
        <ele>330.1</ele>
        <time>2016-11-08T14:27:19Z</time>
      </trkpt>
      <trkpt lat="47.39798" lon="4.98263">
        <ele>329.7</ele>
        <time>2016-11-08T14:27:25Z</time>
      </trkpt>
      <trkpt lat="47.398" lon="4.98276">
        <ele>329.5</ele>
        <time>2016-11-08T14:27:37Z</time>
      </trkpt>
      <trkpt lat="47.39802" lon="4.9829">
        <ele>329.1</ele>
        <time>2016-11-08T14:27:48Z</time>
      </trkpt>
      <trkpt lat="47.3981" lon="4.98303">
        <ele>329.5</ele>
        <time>2016-11-08T14:27:55Z</time>
      </trkpt>
      <trkpt lat="47.39814" lon="4.98316">
        <ele>329.8</ele>
        <time>2016-11-08T14:28:05Z</time>
      </trkpt>
      <trkpt lat="47.39812" lon="4.98329">
        <ele>329.7</ele>
        <time>2016-11-08T14:28:13Z</time>
      </trkpt>
      <trkpt lat="47.39813" lon="4.98343">
        <ele>329.7</ele>
        <time>2016-11-08T14:28:21Z</time>
      </trkpt>
      <trkpt lat="47.39818" lon="4.98355">
        <ele>329.7</ele>
        <time>2016-11-08T14:28:31Z</time>
      </trkpt>
      <trkpt lat="47.39825" lon="4.98364">
        <ele>329.6</ele>
        <time>2016-11-08T14:28:38Z</time>
      </trkpt>
      <trkpt lat="47.39826" lon="4.98378">
        <ele>329</ele>
        <time>2016-11-08T14:28:48Z</time>
      </trkpt>
      <trkpt lat="47.39828" lon="4.98392">
        <ele>328.5</ele>
        <time>2016-11-08T14:28:56Z</time>
      </trkpt>
      <trkpt lat="47.39832" lon="4.98405">
        <ele>328</ele>
        <time>2016-11-08T14:29:05Z</time>
      </trkpt>
      <trkpt lat="47.39834" lon="4.98419">
        <ele>327.1</ele>
        <time>2016-11-08T14:29:14Z</time>
      </trkpt>
      <trkpt lat="47.39835" lon="4.98432">
        <ele>326.8</ele>
        <time>2016-11-08T14:29:25Z</time>
      </trkpt>
      <trkpt lat="47.39836" lon="4.98447">
        <ele>326.7</ele>
        <time>2016-11-08T14:29:33Z</time>
      </trkpt>
      <trkpt lat="47.39844" lon="4.98458">
        <ele>326.6</ele>
        <time>2016-11-08T14:29:40Z</time>
      </trkpt>
      <trkpt lat="47.39852" lon="4.98472">
        <ele>326.9</ele>
        <time>2016-11-08T14:29:50Z</time>
      </trkpt>
      <trkpt lat="47.39857" lon="4.98483">
        <ele>327</ele>
        <time>2016-11-08T14:29:59Z</time>
      </trkpt>
      <trkpt lat="47.39862" lon="4.98494">
        <ele>326.7</ele>
        <time>2016-11-08T14:30:05Z</time>
      </trkpt>
      <trkpt lat="47.3987" lon="4.98504">
        <ele>326.7</ele>
        <time>2016-11-08T14:30:17Z</time>
      </trkpt>
      <trkpt lat="47.39873" lon="4.98517">
        <ele>325.9</ele>
        <time>2016-11-08T14:30:29Z</time>
      </trkpt>
      <trkpt lat="47.39877" lon="4.98529">
        <ele>326.1</ele>
        <time>2016-11-08T14:30:39Z</time>
      </trkpt>
      <trkpt lat="47.39885" lon="4.98542">
        <ele>325.6</ele>
        <time>2016-11-08T14:30:48Z</time>
      </trkpt>
      <trkpt lat="47.39892" lon="4.98552">
        <ele>325.6</ele>
        <time>2016-11-08T14:30:58Z</time>
      </trkpt>
      <trkpt lat="47.39897" lon="4.98564">
        <ele>325</ele>
        <time>2016-11-08T14:31:06Z</time>
      </trkpt>
      <trkpt lat="47.39904" lon="4.98574">
        <ele>324.9</ele>
        <time>2016-11-08T14:31:15Z</time>
      </trkpt>
      <trkpt lat="47.39907" lon="4.98587">
        <ele>324.2</ele>
        <time>2016-11-08T14:31:31Z</time>
      </trkpt>
      <trkpt lat="47.39912" lon="4.98598">
        <ele>324.4</ele>
        <time>2016-11-08T14:31:45Z</time>
      </trkpt>
      <trkpt lat="47.39922" lon="4.98605">
        <ele>324.4</ele>
        <time>2016-11-08T14:31:52Z</time>
      </trkpt>
      <trkpt lat="47.3993" lon="4.9861">
        <ele>324</ele>
        <time>2016-11-08T14:31:56Z</time>
      </trkpt>
      <trkpt lat="47.39935" lon="4.98623">
        <ele>323.1</ele>
        <time>2016-11-08T14:32:08Z</time>
      </trkpt>
      <trkpt lat="47.39942" lon="4.98631">
        <ele>323.1</ele>
        <time>2016-11-08T14:32:16Z</time>
      </trkpt>
      <trkpt lat="47.39947" lon="4.98643">
        <ele>323.8</ele>
        <time>2016-11-08T14:32:28Z</time>
      </trkpt>
      <trkpt lat="47.39955" lon="4.98654">
        <ele>323.9</ele>
        <time>2016-11-08T14:32:35Z</time>
      </trkpt>
      <trkpt lat="47.39962" lon="4.98663">
        <ele>324.1</ele>
        <time>2016-11-08T14:32:45Z</time>
      </trkpt>
      <trkpt lat="47.39969" lon="4.98671">
        <ele>323.9</ele>
        <time>2016-11-08T14:32:54Z</time>
      </trkpt>
      <trkpt lat="47.39975" lon="4.98687">
        <ele>323.1</ele>
        <time>2016-11-08T14:33:04Z</time>
      </trkpt>
      <trkpt lat="47.39981" lon="4.98697">
        <ele>322.8</ele>
        <time>2016-11-08T14:33:13Z</time>
      </trkpt>
      <trkpt lat="47.39987" lon="4.98707">
        <ele>322.4</ele>
        <time>2016-11-08T14:33:21Z</time>
      </trkpt>
      <trkpt lat="47.39989" lon="4.98723">
        <ele>321.5</ele>
        <time>2016-11-08T14:33:33Z</time>
      </trkpt>
      <trkpt lat="47.39998" lon="4.9873">
        <ele>319.9</ele>
        <time>2016-11-08T14:34:02Z</time>
      </trkpt>
      <trkpt lat="47.39998" lon="4.98716">
        <ele>317.3</ele>
        <time>2016-11-08T14:36:18Z</time>
      </trkpt>
      <trkpt lat="47.40002" lon="4.98704">
        <ele>319.5</ele>
        <time>2016-11-08T14:36:37Z</time>
      </trkpt>
      <trkpt lat="47.40008" lon="4.98693">
        <ele>321.3</ele>
        <time>2016-11-08T14:36:54Z</time>
      </trkpt>
      <trkpt lat="47.40014" lon="4.98683">
        <ele>322</ele>
        <time>2016-11-08T14:37:24Z</time>
      </trkpt>
      <trkpt lat="47.40011" lon="4.98696">
        <ele>316.2</ele>
        <time>2016-11-08T14:39:14Z</time>
      </trkpt>
      <trkpt lat="47.40006" lon="4.98709">
        <ele>318.5</ele>
        <time>2016-11-08T14:40:47Z</time>
      </trkpt>
      <trkpt lat="47.40004" lon="4.98723">
        <ele>321.7</ele>
        <time>2016-11-08T14:43:25Z</time>
      </trkpt>
      <trkpt lat="47.40009" lon="4.98735">
        <ele>324.6</ele>
        <time>2016-11-08T14:43:46Z</time>
      </trkpt>
      <trkpt lat="47.40007" lon="4.98751">
        <ele>327</ele>
        <time>2016-11-08T14:43:59Z</time>
      </trkpt>
      <trkpt lat="47.40007" lon="4.98765">
        <ele>327.7</ele>
        <time>2016-11-08T14:44:07Z</time>
      </trkpt>
      <trkpt lat="47.40012" lon="4.98778">
        <ele>328.4</ele>
        <time>2016-11-08T14:44:18Z</time>
      </trkpt>
      <trkpt lat="47.40016" lon="4.98791">
        <ele>328.8</ele>
        <time>2016-11-08T14:44:24Z</time>
      </trkpt>
      <trkpt lat="47.40016" lon="4.98807">
        <ele>329.7</ele>
        <time>2016-11-08T14:44:42Z</time>
      </trkpt>
      <trkpt lat="47.4002" lon="4.98821">
        <ele>329.3</ele>
        <time>2016-11-08T14:44:56Z</time>
      </trkpt>
      <trkpt lat="47.40017" lon="4.98836">
        <ele>329</ele>
        <time>2016-11-08T14:45:01Z</time>
      </trkpt>
      <trkpt lat="47.40014" lon="4.98863">
        <ele>328.7</ele>
        <time>2016-11-08T14:45:05Z</time>
      </trkpt>
      <trkpt lat="47.40021" lon="4.98875">
        <ele>328.5</ele>
        <time>2016-11-08T14:45:09Z</time>
      </trkpt>
      <trkpt lat="47.4003" lon="4.98884">
        <ele>328.4</ele>
        <time>2016-11-08T14:45:13Z</time>
      </trkpt>
      <trkpt lat="47.40035" lon="4.98896">
        <ele>327.8</ele>
        <time>2016-11-08T14:45:25Z</time>
      </trkpt>
      <trkpt lat="47.4004" lon="4.98907">
        <ele>327</ele>
        <time>2016-11-08T14:45:33Z</time>
      </trkpt>
      <trkpt lat="47.40048" lon="4.98915">
        <ele>326.6</ele>
        <time>2016-11-08T14:45:45Z</time>
      </trkpt>
      <trkpt lat="47.40054" lon="4.98928">
        <ele>326.1</ele>
        <time>2016-11-08T14:45:49Z</time>
      </trkpt>
      <trkpt lat="47.40057" lon="4.98942">
        <ele>325.2</ele>
        <time>2016-11-08T14:45:55Z</time>
      </trkpt>
      <trkpt lat="47.40063" lon="4.98955">
        <ele>324.7</ele>
        <time>2016-11-08T14:46:01Z</time>
      </trkpt>
      <trkpt lat="47.40065" lon="4.98969">
        <ele>322.7</ele>
        <time>2016-11-08T14:46:21Z</time>
      </trkpt>
      <trkpt lat="47.40068" lon="4.98983">
        <ele>322.6</ele>
        <time>2016-11-08T14:46:25Z</time>
      </trkpt>
      <trkpt lat="47.4007" lon="4.98997">
        <ele>322.4</ele>
        <time>2016-11-08T14:46:30Z</time>
      </trkpt>
      <trkpt lat="47.40074" lon="4.99009">
        <ele>321.4</ele>
        <time>2016-11-08T14:46:45Z</time>
      </trkpt>
      <trkpt lat="47.40073" lon="4.99024">
        <ele>321.1</ele>
        <time>2016-11-08T14:46:56Z</time>
      </trkpt>
      <trkpt lat="47.40077" lon="4.99038">
        <ele>321.5</ele>
        <time>2016-11-08T14:47:06Z</time>
      </trkpt>
      <trkpt lat="47.40079" lon="4.99052">
        <ele>322.6</ele>
        <time>2016-11-08T14:47:18Z</time>
      </trkpt>
      <trkpt lat="47.40087" lon="4.99065">
        <ele>323.1</ele>
        <time>2016-11-08T14:47:26Z</time>
      </trkpt>
      <trkpt lat="47.40097" lon="4.99078">
        <ele>323.1</ele>
        <time>2016-11-08T14:47:27Z</time>
      </trkpt>
      <trkpt lat="47.40106" lon="4.99084">
        <ele>323</ele>
        <time>2016-11-08T14:47:28Z</time>
      </trkpt>
      <trkpt lat="47.40112" lon="4.99094">
        <ele>322.8</ele>
        <time>2016-11-08T14:47:39Z</time>
      </trkpt>
      <trkpt lat="47.40122" lon="4.99098">
        <ele>323.3</ele>
        <time>2016-11-08T14:47:45Z</time>
      </trkpt>
      <trkpt lat="47.40123" lon="4.99112">
        <ele>324</ele>
        <time>2016-11-08T14:47:58Z</time>
      </trkpt>
      <trkpt lat="47.40132" lon="4.99114">
        <ele>324.1</ele>
        <time>2016-11-08T14:48:02Z</time>
      </trkpt>
      <trkpt lat="47.40141" lon="4.99119">
        <ele>324</ele>
        <time>2016-11-08T14:48:07Z</time>
      </trkpt>
      <trkpt lat="47.40151" lon="4.99127">
        <ele>324.2</ele>
        <time>2016-11-08T14:48:21Z</time>
      </trkpt>
      <trkpt lat="47.40161" lon="4.99131">
        <ele>324.5</ele>
        <time>2016-11-08T14:48:23Z</time>
      </trkpt>
      <trkpt lat="47.40168" lon="4.99141">
        <ele>325.1</ele>
        <time>2016-11-08T14:48:32Z</time>
      </trkpt>
      <trkpt lat="47.40177" lon="4.99142">
        <ele>325.4</ele>
        <time>2016-11-08T14:48:36Z</time>
      </trkpt>
      <trkpt lat="47.40187" lon="4.99147">
        <ele>325.6</ele>
        <time>2016-11-08T14:48:42Z</time>
      </trkpt>
      <trkpt lat="47.40197" lon="4.99153">
        <ele>325</ele>
        <time>2016-11-08T14:48:49Z</time>
      </trkpt>
      <trkpt lat="47.40203" lon="4.99164">
        <ele>324.1</ele>
        <time>2016-11-08T14:48:58Z</time>
      </trkpt>
      <trkpt lat="47.40209" lon="4.99174">
        <ele>323.7</ele>
        <time>2016-11-08T14:49:05Z</time>
      </trkpt>
      <trkpt lat="47.40214" lon="4.99186">
        <ele>322.5</ele>
        <time>2016-11-08T14:49:14Z</time>
      </trkpt>
      <trkpt lat="47.40222" lon="4.99193">
        <ele>321.9</ele>
        <time>2016-11-08T14:49:18Z</time>
      </trkpt>
      <trkpt lat="47.40229" lon="4.99201">
        <ele>321.2</ele>
        <time>2016-11-08T14:49:24Z</time>
      </trkpt>
      <trkpt lat="47.40236" lon="4.99211">
        <ele>320.1</ele>
        <time>2016-11-08T14:49:31Z</time>
      </trkpt>
      <trkpt lat="47.40244" lon="4.99219">
        <ele>318.8</ele>
        <time>2016-11-08T14:49:40Z</time>
      </trkpt>
      <trkpt lat="47.40253" lon="4.99226">
        <ele>318.2</ele>
        <time>2016-11-08T14:49:46Z</time>
      </trkpt>
      <trkpt lat="47.40261" lon="4.99233">
        <ele>318.2</ele>
        <time>2016-11-08T14:49:52Z</time>
      </trkpt>
      <trkpt lat="47.40269" lon="4.9924">
        <ele>317.9</ele>
        <time>2016-11-08T14:50:01Z</time>
      </trkpt>
      <trkpt lat="47.40277" lon="4.9925">
        <ele>318.3</ele>
        <time>2016-11-08T14:50:08Z</time>
      </trkpt>
      <trkpt lat="47.40284" lon="4.99261">
        <ele>319.3</ele>
        <time>2016-11-08T14:50:17Z</time>
      </trkpt>
      <trkpt lat="47.40291" lon="4.99271">
        <ele>319.9</ele>
        <time>2016-11-08T14:50:26Z</time>
      </trkpt>
      <trkpt lat="47.40297" lon="4.99281">
        <ele>319.9</ele>
        <time>2016-11-08T14:50:37Z</time>
      </trkpt>
      <trkpt lat="47.40305" lon="4.99286">
        <ele>318.2</ele>
        <time>2016-11-08T14:50:46Z</time>
      </trkpt>
      <trkpt lat="47.40313" lon="4.99292">
        <ele>316.2</ele>
        <time>2016-11-08T14:50:54Z</time>
      </trkpt>
      <trkpt lat="47.40323" lon="4.99295">
        <ele>313.6</ele>
        <time>2016-11-08T14:51:05Z</time>
      </trkpt>
      <trkpt lat="47.40331" lon="4.99305">
        <ele>312</ele>
        <time>2016-11-08T14:51:11Z</time>
      </trkpt>
      <trkpt lat="47.4034" lon="4.9931">
        <ele>311</ele>
        <time>2016-11-08T14:51:16Z</time>
      </trkpt>
      <trkpt lat="47.40347" lon="4.99321">
        <ele>309.7</ele>
        <time>2016-11-08T14:51:26Z</time>
      </trkpt>
      <trkpt lat="47.40354" lon="4.99329">
        <ele>309.9</ele>
        <time>2016-11-08T14:51:33Z</time>
      </trkpt>
      <trkpt lat="47.40362" lon="4.99336">
        <ele>310.8</ele>
        <time>2016-11-08T14:51:42Z</time>
      </trkpt>
      <trkpt lat="47.40372" lon="4.99341">
        <ele>311.3</ele>
        <time>2016-11-08T14:51:48Z</time>
      </trkpt>
      <trkpt lat="47.40379" lon="4.99349">
        <ele>311.1</ele>
        <time>2016-11-08T14:52:00Z</time>
      </trkpt>
      <trkpt lat="47.40387" lon="4.99358">
        <ele>310.9</ele>
        <time>2016-11-08T14:52:09Z</time>
      </trkpt>
      <trkpt lat="47.40396" lon="4.99364">
        <ele>310.8</ele>
        <time>2016-11-08T14:52:16Z</time>
      </trkpt>
      <trkpt lat="47.40403" lon="4.99374">
        <ele>310.1</ele>
        <time>2016-11-08T14:52:25Z</time>
      </trkpt>
      <trkpt lat="47.40412" lon="4.99382">
        <ele>309.7</ele>
        <time>2016-11-08T14:52:33Z</time>
      </trkpt>
      <trkpt lat="47.40421" lon="4.99387">
        <ele>308.9</ele>
        <time>2016-11-08T14:52:40Z</time>
      </trkpt>
      <trkpt lat="47.40428" lon="4.99397">
        <ele>307.7</ele>
        <time>2016-11-08T14:52:49Z</time>
      </trkpt>
      <trkpt lat="47.40438" lon="4.99402">
        <ele>306.6</ele>
        <time>2016-11-08T14:52:55Z</time>
      </trkpt>
      <trkpt lat="47.40447" lon="4.99407">
        <ele>305.4</ele>
        <time>2016-11-08T14:53:03Z</time>
      </trkpt>
      <trkpt lat="47.40456" lon="4.99413">
        <ele>304.9</ele>
        <time>2016-11-08T14:53:12Z</time>
      </trkpt>
      <trkpt lat="47.40464" lon="4.99418">
        <ele>304.6</ele>
        <time>2016-11-08T14:53:19Z</time>
      </trkpt>
      <trkpt lat="47.40472" lon="4.99425">
        <ele>304.9</ele>
        <time>2016-11-08T14:53:27Z</time>
      </trkpt>
      <trkpt lat="47.4048" lon="4.99431">
        <ele>304.8</ele>
        <time>2016-11-08T14:53:35Z</time>
      </trkpt>
      <trkpt lat="47.40488" lon="4.99439">
        <ele>304.6</ele>
        <time>2016-11-08T14:53:55Z</time>
      </trkpt>
      <trkpt lat="47.40479" lon="4.99436">
        <ele>307.1</ele>
        <time>2016-11-08T14:56:41Z</time>
      </trkpt>
      <trkpt lat="47.4047" lon="4.99429">
        <ele>305.1</ele>
        <time>2016-11-08T14:58:37Z</time>
      </trkpt>
      <trkpt lat="47.40462" lon="4.99423">
        <ele>304</ele>
        <time>2016-11-08T14:58:50Z</time>
      </trkpt>
      <trkpt lat="47.40453" lon="4.99417">
        <ele>302.4</ele>
        <time>2016-11-08T14:59:03Z</time>
      </trkpt>
      <trkpt lat="47.40445" lon="4.9941">
        <ele>301.9</ele>
        <time>2016-11-08T14:59:15Z</time>
      </trkpt>
      <trkpt lat="47.40436" lon="4.99405">
        <ele>301.8</ele>
        <time>2016-11-08T14:59:24Z</time>
      </trkpt>
      <trkpt lat="47.40428" lon="4.99399">
        <ele>301.4</ele>
        <time>2016-11-08T14:59:34Z</time>
      </trkpt>
      <trkpt lat="47.40419" lon="4.99394">
        <ele>301.3</ele>
        <time>2016-11-08T14:59:43Z</time>
      </trkpt>
      <trkpt lat="47.4041" lon="4.99386">
        <ele>301.8</ele>
        <time>2016-11-08T14:59:51Z</time>
      </trkpt>
      <trkpt lat="47.40402" lon="4.99378">
        <ele>302.4</ele>
        <time>2016-11-08T15:00:01Z</time>
      </trkpt>
      <trkpt lat="47.40394" lon="4.9937">
        <ele>303.4</ele>
        <time>2016-11-08T15:00:09Z</time>
      </trkpt>
      <trkpt lat="47.40386" lon="4.99362">
        <ele>304</ele>
        <time>2016-11-08T15:00:19Z</time>
      </trkpt>
      <trkpt lat="47.40377" lon="4.99356">
        <ele>303.7</ele>
        <time>2016-11-08T15:00:32Z</time>
      </trkpt>
      <trkpt lat="47.40372" lon="4.99345">
        <ele>304.6</ele>
        <time>2016-11-08T15:00:41Z</time>
      </trkpt>
      <trkpt lat="47.40364" lon="4.99339">
        <ele>306.1</ele>
        <time>2016-11-08T15:00:47Z</time>
      </trkpt>
      <trkpt lat="47.40355" lon="4.99335">
        <ele>307.1</ele>
        <time>2016-11-08T15:00:53Z</time>
      </trkpt>
      <trkpt lat="47.40347" lon="4.99325">
        <ele>309.8</ele>
        <time>2016-11-08T15:01:05Z</time>
      </trkpt>
      <trkpt lat="47.40339" lon="4.99317">
        <ele>312.4</ele>
        <time>2016-11-08T15:01:19Z</time>
      </trkpt>
      <trkpt lat="47.40331" lon="4.99311">
        <ele>313.4</ele>
        <time>2016-11-08T15:01:27Z</time>
      </trkpt>
      <trkpt lat="47.40323" lon="4.99304">
        <ele>313.7</ele>
        <time>2016-11-08T15:01:35Z</time>
      </trkpt>
      <trkpt lat="47.40315" lon="4.99297">
        <ele>314.6</ele>
        <time>2016-11-08T15:01:42Z</time>
      </trkpt>
      <trkpt lat="47.40305" lon="4.99293">
        <ele>314.8</ele>
        <time>2016-11-08T15:01:46Z</time>
      </trkpt>
      <trkpt lat="47.40296" lon="4.99288">
        <ele>316.1</ele>
        <time>2016-11-08T15:01:55Z</time>
      </trkpt>
      <trkpt lat="47.40289" lon="4.99278">
        <ele>318.4</ele>
        <time>2016-11-08T15:02:09Z</time>
      </trkpt>
      <trkpt lat="47.40281" lon="4.99269">
        <ele>319.5</ele>
        <time>2016-11-08T15:02:19Z</time>
      </trkpt>
      <trkpt lat="47.40272" lon="4.99262">
        <ele>320.7</ele>
        <time>2016-11-08T15:02:32Z</time>
      </trkpt>
      <trkpt lat="47.40265" lon="4.99253">
        <ele>321.7</ele>
        <time>2016-11-08T15:02:37Z</time>
      </trkpt>
      <trkpt lat="47.40259" lon="4.99241">
        <ele>322.7</ele>
        <time>2016-11-08T15:02:43Z</time>
      </trkpt>
      <trkpt lat="47.4025" lon="4.99234">
        <ele>323.1</ele>
        <time>2016-11-08T15:02:47Z</time>
      </trkpt>
      <trkpt lat="47.40243" lon="4.99225">
        <ele>323.1</ele>
        <time>2016-11-08T15:02:53Z</time>
      </trkpt>
      <trkpt lat="47.40234" lon="4.99217">
        <ele>323.6</ele>
        <time>2016-11-08T15:03:04Z</time>
      </trkpt>
      <trkpt lat="47.40226" lon="4.9921">
        <ele>324.8</ele>
        <time>2016-11-08T15:03:17Z</time>
      </trkpt>
      <trkpt lat="47.40221" lon="4.99198">
        <ele>326.1</ele>
        <time>2016-11-08T15:03:24Z</time>
      </trkpt>
      <trkpt lat="47.40214" lon="4.99187">
        <ele>325.6</ele>
        <time>2016-11-08T15:03:35Z</time>
      </trkpt>
      <trkpt lat="47.40209" lon="4.99175">
        <ele>323.3</ele>
        <time>2016-11-08T15:03:50Z</time>
      </trkpt>
      <trkpt lat="47.402" lon="4.99168">
        <ele>322.6</ele>
        <time>2016-11-08T15:03:54Z</time>
      </trkpt>
      <trkpt lat="47.40191" lon="4.99164">
        <ele>321.5</ele>
        <time>2016-11-08T15:04:02Z</time>
      </trkpt>
      <trkpt lat="47.40181" lon="4.99158">
        <ele>321</ele>
        <time>2016-11-08T15:04:08Z</time>
      </trkpt>
      <trkpt lat="47.40173" lon="4.99152">
        <ele>321</ele>
        <time>2016-11-08T15:04:24Z</time>
      </trkpt>
      <trkpt lat="47.40165" lon="4.99145">
        <ele>323</ele>
        <time>2016-11-08T15:04:32Z</time>
      </trkpt>
      <trkpt lat="47.40158" lon="4.99135">
        <ele>324.1</ele>
        <time>2016-11-08T15:04:36Z</time>
      </trkpt>
      <trkpt lat="47.40152" lon="4.99124">
        <ele>324.7</ele>
        <time>2016-11-08T15:04:46Z</time>
      </trkpt>
      <trkpt lat="47.40146" lon="4.99112">
        <ele>324.6</ele>
        <time>2016-11-08T15:04:51Z</time>
      </trkpt>
      <trkpt lat="47.40139" lon="4.99102">
        <ele>325.1</ele>
        <time>2016-11-08T15:04:58Z</time>
      </trkpt>
      <trkpt lat="47.40135" lon="4.9909">
        <ele>326.1</ele>
        <time>2016-11-08T15:05:09Z</time>
      </trkpt>
      <trkpt lat="47.4013" lon="4.99079">
        <ele>324</ele>
        <time>2016-11-08T15:05:18Z</time>
      </trkpt>
      <trkpt lat="47.40124" lon="4.99067">
        <ele>322.7</ele>
        <time>2016-11-08T15:05:32Z</time>
      </trkpt>
      <trkpt lat="47.40122" lon="4.99053">
        <ele>323.6</ele>
        <time>2016-11-08T15:05:38Z</time>
      </trkpt>
      <trkpt lat="47.40117" lon="4.99041">
        <ele>325.5</ele>
        <time>2016-11-08T15:05:49Z</time>
      </trkpt>
      <trkpt lat="47.40115" lon="4.99026">
        <ele>328</ele>
        <time>2016-11-08T15:06:02Z</time>
      </trkpt>
      <trkpt lat="47.40111" lon="4.99014">
        <ele>329.9</ele>
        <time>2016-11-08T15:06:11Z</time>
      </trkpt>
      <trkpt lat="47.40104" lon="4.99006">
        <ele>330.3</ele>
        <time>2016-11-08T15:06:18Z</time>
      </trkpt>
      <trkpt lat="47.40096" lon="4.98996">
        <ele>330.5</ele>
        <time>2016-11-08T15:06:24Z</time>
      </trkpt>
      <trkpt lat="47.40096" lon="4.98982">
        <ele>330.1</ele>
        <time>2016-11-08T15:06:32Z</time>
      </trkpt>
      <trkpt lat="47.40089" lon="4.98972">
        <ele>329.4</ele>
        <time>2016-11-08T15:06:41Z</time>
      </trkpt>
      <trkpt lat="47.40082" lon="4.9896">
        <ele>328.6</ele>
        <time>2016-11-08T15:06:48Z</time>
      </trkpt>
      <trkpt lat="47.40081" lon="4.98945">
        <ele>328.6</ele>
        <time>2016-11-08T15:06:54Z</time>
      </trkpt>
      <trkpt lat="47.40081" lon="4.98932">
        <ele>329.4</ele>
        <time>2016-11-08T15:07:05Z</time>
      </trkpt>
      <trkpt lat="47.40072" lon="4.98923">
        <ele>329.7</ele>
        <time>2016-11-08T15:07:14Z</time>
      </trkpt>
      <trkpt lat="47.40066" lon="4.9891">
        <ele>330.3</ele>
        <time>2016-11-08T15:07:20Z</time>
      </trkpt>
      <trkpt lat="47.40056" lon="4.98891">
        <ele>330.1</ele>
        <time>2016-11-08T15:07:24Z</time>
      </trkpt>
      <trkpt lat="47.4005" lon="4.9888">
        <ele>329.6</ele>
        <time>2016-11-08T15:07:32Z</time>
      </trkpt>
      <trkpt lat="47.40042" lon="4.98865">
        <ele>327.7</ele>
        <time>2016-11-08T15:07:47Z</time>
      </trkpt>
      <trkpt lat="47.40037" lon="4.98852">
        <ele>327.1</ele>
        <time>2016-11-08T15:07:52Z</time>
      </trkpt>
      <trkpt lat="47.40033" lon="4.9884">
        <ele>326.6</ele>
        <time>2016-11-08T15:08:03Z</time>
      </trkpt>
      <trkpt lat="47.40035" lon="4.98827">
        <ele>325.9</ele>
        <time>2016-11-08T15:08:15Z</time>
      </trkpt>
      <trkpt lat="47.40036" lon="4.98812">
        <ele>326</ele>
        <time>2016-11-08T15:08:22Z</time>
      </trkpt>
      <trkpt lat="47.4003" lon="4.988">
        <ele>326.3</ele>
        <time>2016-11-08T15:08:29Z</time>
      </trkpt>
      <trkpt lat="47.40025" lon="4.98788">
        <ele>326.2</ele>
        <time>2016-11-08T15:08:37Z</time>
      </trkpt>
      <trkpt lat="47.40019" lon="4.98775">
        <ele>327.3</ele>
        <time>2016-11-08T15:08:44Z</time>
      </trkpt>
      <trkpt lat="47.40014" lon="4.98763">
        <ele>328</ele>
        <time>2016-11-08T15:08:52Z</time>
      </trkpt>
      <trkpt lat="47.40008" lon="4.98751">
        <ele>328.7</ele>
        <time>2016-11-08T15:08:59Z</time>
      </trkpt>
      <trkpt lat="47.40001" lon="4.98742">
        <ele>328.6</ele>
        <time>2016-11-08T15:09:08Z</time>
      </trkpt>
      <trkpt lat="47.39995" lon="4.98732">
        <ele>328.6</ele>
        <time>2016-11-08T15:09:21Z</time>
      </trkpt>
      <trkpt lat="47.39991" lon="4.9872">
        <ele>329.3</ele>
        <time>2016-11-08T15:09:30Z</time>
      </trkpt>
      <trkpt lat="47.39986" lon="4.98709">
        <ele>329.2</ele>
        <time>2016-11-08T15:09:38Z</time>
      </trkpt>
      <trkpt lat="47.39979" lon="4.98699">
        <ele>329.1</ele>
        <time>2016-11-08T15:09:46Z</time>
      </trkpt>
      <trkpt lat="47.39972" lon="4.98685">
        <ele>329.2</ele>
        <time>2016-11-08T15:09:59Z</time>
      </trkpt>
      <trkpt lat="47.39972" lon="4.98667">
        <ele>329.8</ele>
        <time>2016-11-08T15:10:06Z</time>
      </trkpt>
      <trkpt lat="47.39968" lon="4.98654">
        <ele>328.4</ele>
        <time>2016-11-08T15:10:22Z</time>
      </trkpt>
      <trkpt lat="47.39961" lon="4.98644">
        <ele>328.4</ele>
        <time>2016-11-08T15:10:34Z</time>
      </trkpt>
      <trkpt lat="47.39954" lon="4.98634">
        <ele>328.5</ele>
        <time>2016-11-08T15:10:40Z</time>
      </trkpt>
      <trkpt lat="47.39948" lon="4.98622">
        <ele>328.5</ele>
        <time>2016-11-08T15:10:47Z</time>
      </trkpt>
      <trkpt lat="47.39943" lon="4.9861">
        <ele>328.6</ele>
        <time>2016-11-08T15:10:55Z</time>
      </trkpt>
      <trkpt lat="47.39938" lon="4.98596">
        <ele>328.6</ele>
        <time>2016-11-08T15:10:59Z</time>
      </trkpt>
      <trkpt lat="47.39929" lon="4.98585">
        <ele>327.8</ele>
        <time>2016-11-08T15:11:05Z</time>
      </trkpt>
      <trkpt lat="47.39921" lon="4.98578">
        <ele>327</ele>
        <time>2016-11-08T15:11:11Z</time>
      </trkpt>
      <trkpt lat="47.39912" lon="4.98574">
        <ele>326.2</ele>
        <time>2016-11-08T15:11:25Z</time>
      </trkpt>
      <trkpt lat="47.39904" lon="4.98561">
        <ele>326</ele>
        <time>2016-11-08T15:11:38Z</time>
      </trkpt>
      <trkpt lat="47.39896" lon="4.9855">
        <ele>326</ele>
        <time>2016-11-08T15:11:44Z</time>
      </trkpt>
      <trkpt lat="47.39888" lon="4.98542">
        <ele>325.7</ele>
        <time>2016-11-08T15:11:47Z</time>
      </trkpt>
      <trkpt lat="47.39881" lon="4.98532">
        <ele>324.8</ele>
        <time>2016-11-08T15:11:58Z</time>
      </trkpt>
      <trkpt lat="47.39882" lon="4.98519">
        <ele>326.9</ele>
        <time>2016-11-08T15:12:25Z</time>
      </trkpt>
      <trkpt lat="47.39873" lon="4.98524">
        <ele>325.9</ele>
        <time>2016-11-08T15:12:38Z</time>
      </trkpt>
      <trkpt lat="47.3987" lon="4.98511">
        <ele>325.1</ele>
        <time>2016-11-08T15:13:05Z</time>
      </trkpt>
      <trkpt lat="47.39868" lon="4.98492">
        <ele>326.1</ele>
        <time>2016-11-08T15:13:16Z</time>
      </trkpt>
      <trkpt lat="47.39862" lon="4.98482">
        <ele>326.5</ele>
        <time>2016-11-08T15:13:21Z</time>
      </trkpt>
      <trkpt lat="47.39859" lon="4.98467">
        <ele>327.2</ele>
        <time>2016-11-08T15:13:37Z</time>
      </trkpt>
      <trkpt lat="47.39855" lon="4.98455">
        <ele>327.7</ele>
        <time>2016-11-08T15:13:42Z</time>
      </trkpt>
      <trkpt lat="47.39848" lon="4.98445">
        <ele>327.4</ele>
        <time>2016-11-08T15:13:50Z</time>
      </trkpt>
      <trkpt lat="47.39843" lon="4.98432">
        <ele>326.8</ele>
        <time>2016-11-08T15:13:56Z</time>
      </trkpt>
      <trkpt lat="47.39844" lon="4.98419">
        <ele>326.4</ele>
        <time>2016-11-08T15:14:03Z</time>
      </trkpt>
      <trkpt lat="47.3984" lon="4.98406">
        <ele>326.6</ele>
        <time>2016-11-08T15:14:14Z</time>
      </trkpt>
      <trkpt lat="47.39838" lon="4.98392">
        <ele>327.1</ele>
        <time>2016-11-08T15:14:20Z</time>
      </trkpt>
      <trkpt lat="47.39834" lon="4.9838">
        <ele>327.5</ele>
        <time>2016-11-08T15:14:27Z</time>
      </trkpt>
      <trkpt lat="47.39833" lon="4.98366">
        <ele>328.2</ele>
        <time>2016-11-08T15:14:37Z</time>
      </trkpt>
      <trkpt lat="47.39831" lon="4.98352">
        <ele>329.3</ele>
        <time>2016-11-08T15:14:47Z</time>
      </trkpt>
      <trkpt lat="47.39826" lon="4.9834">
        <ele>329.6</ele>
        <time>2016-11-08T15:14:55Z</time>
      </trkpt>
      <trkpt lat="47.39822" lon="4.98327">
        <ele>329.3</ele>
        <time>2016-11-08T15:15:07Z</time>
      </trkpt>
      <trkpt lat="47.39817" lon="4.98315">
        <ele>329.3</ele>
        <time>2016-11-08T15:15:18Z</time>
      </trkpt>
      <trkpt lat="47.39814" lon="4.98301">
        <ele>329</ele>
        <time>2016-11-08T15:15:25Z</time>
      </trkpt>
      <trkpt lat="47.39809" lon="4.98289">
        <ele>328</ele>
        <time>2016-11-08T15:15:37Z</time>
      </trkpt>
      <trkpt lat="47.3981" lon="4.98275">
        <ele>328</ele>
        <time>2016-11-08T15:15:42Z</time>
      </trkpt>
      <trkpt lat="47.39809" lon="4.98261">
        <ele>327.6</ele>
        <time>2016-11-08T15:15:52Z</time>
      </trkpt>
      <trkpt lat="47.39809" lon="4.98247">
        <ele>327.7</ele>
        <time>2016-11-08T15:16:02Z</time>
      </trkpt>
      <trkpt lat="47.39809" lon="4.98233">
        <ele>328</ele>
        <time>2016-11-08T15:16:15Z</time>
      </trkpt>
      <trkpt lat="47.39807" lon="4.98219">
        <ele>328.2</ele>
        <time>2016-11-08T15:16:25Z</time>
      </trkpt>
      <trkpt lat="47.39806" lon="4.98204">
        <ele>329.2</ele>
        <time>2016-11-08T15:16:39Z</time>
      </trkpt>
      <trkpt lat="47.39804" lon="4.9819">
        <ele>330.2</ele>
        <time>2016-11-08T15:16:49Z</time>
      </trkpt>
      <trkpt lat="47.39808" lon="4.98177">
        <ele>330.4</ele>
        <time>2016-11-08T15:16:53Z</time>
      </trkpt>
      <trkpt lat="47.39807" lon="4.98164">
        <ele>329.8</ele>
        <time>2016-11-08T15:17:02Z</time>
      </trkpt>
      <trkpt lat="47.39803" lon="4.98151">
        <ele>329.8</ele>
        <time>2016-11-08T15:17:12Z</time>
      </trkpt>
      <trkpt lat="47.39795" lon="4.98138">
        <ele>330.4</ele>
        <time>2016-11-08T15:17:19Z</time>
      </trkpt>
      <trkpt lat="47.39788" lon="4.98128">
        <ele>330.9</ele>
        <time>2016-11-08T15:17:24Z</time>
      </trkpt>
      <trkpt lat="47.39788" lon="4.98112">
        <ele>332.2</ele>
        <time>2016-11-08T15:17:45Z</time>
      </trkpt>
      <trkpt lat="47.3979" lon="4.98096">
        <ele>332</ele>
        <time>2016-11-08T15:17:50Z</time>
      </trkpt>
      <trkpt lat="47.39784" lon="4.9808">
        <ele>331.9</ele>
        <time>2016-11-08T15:17:51Z</time>
      </trkpt>
      <trkpt lat="47.39779" lon="4.98063">
        <ele>331.9</ele>
        <time>2016-11-08T15:17:55Z</time>
      </trkpt>
      <trkpt lat="47.39777" lon="4.98049">
        <ele>331</ele>
        <time>2016-11-08T15:18:01Z</time>
      </trkpt>
      <trkpt lat="47.39775" lon="4.98033">
        <ele>329.9</ele>
        <time>2016-11-08T15:18:13Z</time>
      </trkpt>
      <trkpt lat="47.39771" lon="4.98019">
        <ele>328.9</ele>
        <time>2016-11-08T15:18:25Z</time>
      </trkpt>
      <trkpt lat="47.39774" lon="4.98005">
        <ele>330.1</ele>
        <time>2016-11-08T15:18:36Z</time>
      </trkpt>
      <trkpt lat="47.39771" lon="4.97992">
        <ele>331.9</ele>
        <time>2016-11-08T15:18:45Z</time>
      </trkpt>
      <trkpt lat="47.39776" lon="4.97978">
        <ele>333.5</ele>
        <time>2016-11-08T15:18:51Z</time>
      </trkpt>
      <trkpt lat="47.3978" lon="4.97961">
        <ele>333.8</ele>
        <time>2016-11-08T15:18:53Z</time>
      </trkpt>
      <trkpt lat="47.3978" lon="4.97948">
        <ele>334.4</ele>
        <time>2016-11-08T15:19:00Z</time>
      </trkpt>
      <trkpt lat="47.39782" lon="4.97935">
        <ele>334.2</ele>
        <time>2016-11-08T15:19:50Z</time>
      </trkpt>
      <trkpt lat="47.39783" lon="4.97922">
        <ele>333.1</ele>
        <time>2016-11-08T15:19:56Z</time>
      </trkpt>
      <trkpt lat="47.39779" lon="4.97909">
        <ele>330.9</ele>
        <time>2016-11-08T15:20:13Z</time>
      </trkpt>
      <trkpt lat="47.39778" lon="4.97924">
        <ele>326.7</ele>
        <time>2016-11-08T15:20:52Z</time>
      </trkpt>
      <trkpt lat="47.3978" lon="4.97937">
        <ele>324.8</ele>
        <time>2016-11-08T15:21:08Z</time>
      </trkpt>
      <trkpt lat="47.39772" lon="4.97944">
        <ele>322.3</ele>
        <time>2016-11-08T15:21:34Z</time>
      </trkpt>
      <trkpt lat="47.39761" lon="4.97941">
        <ele>322.9</ele>
        <time>2016-11-08T15:21:47Z</time>
      </trkpt>
      <trkpt lat="47.39751" lon="4.97942">
        <ele>323.9</ele>
        <time>2016-11-08T15:22:02Z</time>
      </trkpt>
      <trkpt lat="47.39743" lon="4.97936">
        <ele>325.3</ele>
        <time>2016-11-08T15:22:21Z</time>
      </trkpt>
      <trkpt lat="47.39734" lon="4.97931">
        <ele>327.8</ele>
        <time>2016-11-08T15:22:46Z</time>
      </trkpt>
      <trkpt lat="47.39724" lon="4.97931">
        <ele>329.5</ele>
        <time>2016-11-08T15:23:06Z</time>
      </trkpt>
      <trkpt lat="47.39716" lon="4.97925">
        <ele>330.4</ele>
        <time>2016-11-08T15:23:23Z</time>
      </trkpt>
      <trkpt lat="47.39707" lon="4.97924">
        <ele>337.4</ele>
        <time>2016-11-08T15:24:25Z</time>
      </trkpt>
      <trkpt lat="47.397" lon="4.97933">
        <ele>337.5</ele>
        <time>2016-11-08T15:24:32Z</time>
      </trkpt>
      <trkpt lat="47.39694" lon="4.97923">
        <ele>340.5</ele>
        <time>2016-11-08T15:25:12Z</time>
      </trkpt>
      <trkpt lat="47.39685" lon="4.97919">
        <ele>343.5</ele>
        <time>2016-11-08T15:25:38Z</time>
      </trkpt>
      <trkpt lat="47.39676" lon="4.97919">
        <ele>344.6</ele>
        <time>2016-11-08T15:25:56Z</time>
      </trkpt>
      <trkpt lat="47.39673" lon="4.97905">
        <ele>348.5</ele>
        <time>2016-11-08T15:26:41Z</time>
      </trkpt>
      <trkpt lat="47.39666" lon="4.97913">
        <ele>348.8</ele>
        <time>2016-11-08T15:27:02Z</time>
      </trkpt>
      <trkpt lat="47.39657" lon="4.97912">
        <ele>353</ele>
        <time>2016-11-08T15:28:00Z</time>
      </trkpt>
      <trkpt lat="47.39647" lon="4.97912">
        <ele>355.5</ele>
        <time>2016-11-08T15:28:36Z</time>
      </trkpt>
      <trkpt lat="47.39638" lon="4.97911">
        <ele>355.6</ele>
        <time>2016-11-08T15:28:55Z</time>
      </trkpt>
      <trkpt lat="47.39628" lon="4.97911">
        <ele>356.3</ele>
        <time>2016-11-08T15:29:36Z</time>
      </trkpt>
      <trkpt lat="47.39619" lon="4.97913">
        <ele>357.5</ele>
        <time>2016-11-08T15:29:50Z</time>
      </trkpt>
      <trkpt lat="47.39611" lon="4.97909">
        <ele>357.8</ele>
        <time>2016-11-08T15:30:05Z</time>
      </trkpt>
      <trkpt lat="47.39601" lon="4.97912">
        <ele>359.4</ele>
        <time>2016-11-08T15:30:42Z</time>
      </trkpt>
      <trkpt lat="47.39595" lon="4.97921">
        <ele>360</ele>
        <time>2016-11-08T15:30:58Z</time>
      </trkpt>
      <trkpt lat="47.39585" lon="4.97921">
        <ele>365.8</ele>
        <time>2016-11-08T15:31:23Z</time>
      </trkpt>
      <trkpt lat="47.39575" lon="4.97923">
        <ele>367.3</ele>
        <time>2016-11-08T15:31:48Z</time>
      </trkpt>
      <trkpt lat="47.39565" lon="4.97924">
        <ele>373.2</ele>
        <time>2016-11-08T15:33:02Z</time>
      </trkpt>
      <trkpt lat="47.39554" lon="4.97925">
        <ele>374.5</ele>
        <time>2016-11-08T15:33:12Z</time>
      </trkpt>
      <trkpt lat="47.39544" lon="4.97925">
        <ele>375.5</ele>
        <time>2016-11-08T15:33:18Z</time>
      </trkpt>
      <trkpt lat="47.39541" lon="4.97937">
        <ele>376.8</ele>
        <time>2016-11-08T15:33:39Z</time>
      </trkpt>
      <trkpt lat="47.39533" lon="4.97946">
        <ele>376.9</ele>
        <time>2016-11-08T15:33:58Z</time>
      </trkpt>
      <trkpt lat="47.39524" lon="4.9795">
        <ele>377.2</ele>
        <time>2016-11-08T15:34:16Z</time>
      </trkpt>
      <trkpt lat="47.39514" lon="4.97954">
        <ele>377.4</ele>
        <time>2016-11-08T15:35:16Z</time>
      </trkpt>
      <trkpt lat="47.39505" lon="4.97961">
        <ele>377.3</ele>
        <time>2016-11-08T15:35:29Z</time>
      </trkpt>
      <trkpt lat="47.39496" lon="4.97964">
        <ele>380.4</ele>
        <time>2016-11-08T15:35:43Z</time>
      </trkpt>
      <trkpt lat="47.39487" lon="4.97968">
        <ele>383.1</ele>
        <time>2016-11-08T15:35:54Z</time>
      </trkpt>
      <trkpt lat="47.39477" lon="4.97966">
        <ele>384.2</ele>
        <time>2016-11-08T15:35:58Z</time>
      </trkpt>
      <trkpt lat="47.39467" lon="4.97962">
        <ele>385.4</ele>
        <time>2016-11-08T15:36:04Z</time>
      </trkpt>
      <trkpt lat="47.39458" lon="4.97962">
        <ele>386.5</ele>
        <time>2016-11-08T15:36:14Z</time>
      </trkpt>
      <trkpt lat="47.39449" lon="4.97959">
        <ele>387.9</ele>
        <time>2016-11-08T15:36:53Z</time>
      </trkpt>
      <trkpt lat="47.39439" lon="4.97954">
        <ele>391.5</ele>
        <time>2016-11-08T15:37:39Z</time>
      </trkpt>
      <trkpt lat="47.3943" lon="4.97954">
        <ele>393.3</ele>
        <time>2016-11-08T15:37:54Z</time>
      </trkpt>
      <trkpt lat="47.3942" lon="4.9795">
        <ele>396.3</ele>
        <time>2016-11-08T15:38:14Z</time>
      </trkpt>
      <trkpt lat="47.39411" lon="4.97949">
        <ele>397.3</ele>
        <time>2016-11-08T15:38:22Z</time>
      </trkpt>
      <trkpt lat="47.39402" lon="4.97947">
        <ele>399.7</ele>
        <time>2016-11-08T15:38:51Z</time>
      </trkpt>
      <trkpt lat="47.39392" lon="4.97947">
        <ele>399.7</ele>
        <time>2016-11-08T15:39:00Z</time>
      </trkpt>
      <trkpt lat="47.39383" lon="4.97951">
        <ele>400.1</ele>
        <time>2016-11-08T15:39:07Z</time>
      </trkpt>
      <trkpt lat="47.39374" lon="4.97955">
        <ele>401.4</ele>
        <time>2016-11-08T15:39:19Z</time>
      </trkpt>
      <trkpt lat="47.39365" lon="4.97952">
        <ele>401.5</ele>
        <time>2016-11-08T15:39:36Z</time>
      </trkpt>
      <trkpt lat="47.39359" lon="4.97963">
        <ele>401.8</ele>
        <time>2016-11-08T15:40:16Z</time>
      </trkpt>
      <trkpt lat="47.39356" lon="4.97977">
        <ele>402</ele>
        <time>2016-11-08T15:42:26Z</time>
      </trkpt>
      <trkpt lat="47.39353" lon="4.9799">
        <ele>401.8</ele>
        <time>2016-11-08T15:42:36Z</time>
      </trkpt>
      <trkpt lat="47.39352" lon="4.98004">
        <ele>400.9</ele>
        <time>2016-11-08T15:42:47Z</time>
      </trkpt>
      <trkpt lat="47.39348" lon="4.98017">
        <ele>401.1</ele>
        <time>2016-11-08T15:42:55Z</time>
      </trkpt>
      <trkpt lat="47.39344" lon="4.9803">
        <ele>401.4</ele>
        <time>2016-11-08T15:43:02Z</time>
      </trkpt>
      <trkpt lat="47.39341" lon="4.98043">
        <ele>402.1</ele>
        <time>2016-11-08T15:43:12Z</time>
      </trkpt>
      <trkpt lat="47.39338" lon="4.98056">
        <ele>402.8</ele>
        <time>2016-11-08T15:43:20Z</time>
      </trkpt>
      <trkpt lat="47.39334" lon="4.98069">
        <ele>403.1</ele>
        <time>2016-11-08T15:43:43Z</time>
      </trkpt>
      <trkpt lat="47.39331" lon="4.98083">
        <ele>402.9</ele>
        <time>2016-11-08T15:43:51Z</time>
      </trkpt>
      <trkpt lat="47.39327" lon="4.98096">
        <ele>402.9</ele>
        <time>2016-11-08T15:43:59Z</time>
      </trkpt>
      <trkpt lat="47.39324" lon="4.9811">
        <ele>403</ele>
        <time>2016-11-08T15:44:07Z</time>
      </trkpt>
      <trkpt lat="47.39321" lon="4.98123">
        <ele>403.4</ele>
        <time>2016-11-08T15:44:16Z</time>
      </trkpt>
      <trkpt lat="47.39316" lon="4.98134">
        <ele>403.3</ele>
        <time>2016-11-08T15:44:24Z</time>
      </trkpt>
      <trkpt lat="47.39314" lon="4.98147">
        <ele>402.9</ele>
        <time>2016-11-08T15:44:35Z</time>
      </trkpt>
      <trkpt lat="47.39311" lon="4.98161">
        <ele>402.4</ele>
        <time>2016-11-08T15:44:49Z</time>
      </trkpt>
      <trkpt lat="47.39307" lon="4.98175">
        <ele>402.3</ele>
        <time>2016-11-08T15:44:56Z</time>
      </trkpt>
      <trkpt lat="47.39303" lon="4.98188">
        <ele>401.8</ele>
        <time>2016-11-08T15:45:04Z</time>
      </trkpt>
      <trkpt lat="47.393" lon="4.98203">
        <ele>401.3</ele>
        <time>2016-11-08T15:45:16Z</time>
      </trkpt>
      <trkpt lat="47.39296" lon="4.98216">
        <ele>401.3</ele>
        <time>2016-11-08T15:45:24Z</time>
      </trkpt>
      <trkpt lat="47.39293" lon="4.9823">
        <ele>401.4</ele>
        <time>2016-11-08T15:45:31Z</time>
      </trkpt>
      <trkpt lat="47.3929" lon="4.98243">
        <ele>401.3</ele>
        <time>2016-11-08T15:45:38Z</time>
      </trkpt>
      <trkpt lat="47.39286" lon="4.98256">
        <ele>400.8</ele>
        <time>2016-11-08T15:45:47Z</time>
      </trkpt>
      <trkpt lat="47.39283" lon="4.98269">
        <ele>400.8</ele>
        <time>2016-11-08T15:45:55Z</time>
      </trkpt>
      <trkpt lat="47.39282" lon="4.98282">
        <ele>400.4</ele>
        <time>2016-11-08T15:46:03Z</time>
      </trkpt>
      <trkpt lat="47.39278" lon="4.98295">
        <ele>400</ele>
        <time>2016-11-08T15:46:12Z</time>
      </trkpt>
      <trkpt lat="47.39276" lon="4.98309">
        <ele>399.6</ele>
        <time>2016-11-08T15:46:20Z</time>
      </trkpt>
      <trkpt lat="47.39273" lon="4.98324">
        <ele>399</ele>
        <time>2016-11-08T15:46:30Z</time>
      </trkpt>
      <trkpt lat="47.39268" lon="4.98335">
        <ele>398.3</ele>
        <time>2016-11-08T15:46:37Z</time>
      </trkpt>
      <trkpt lat="47.39265" lon="4.98348">
        <ele>398</ele>
        <time>2016-11-08T15:46:45Z</time>
      </trkpt>
      <trkpt lat="47.39263" lon="4.98361">
        <ele>397.6</ele>
        <time>2016-11-08T15:46:53Z</time>
      </trkpt>
      <trkpt lat="47.3926" lon="4.98375">
        <ele>397.4</ele>
        <time>2016-11-08T15:47:02Z</time>
      </trkpt>
      <trkpt lat="47.39257" lon="4.98388">
        <ele>397.1</ele>
        <time>2016-11-08T15:47:09Z</time>
      </trkpt>
      <trkpt lat="47.39254" lon="4.98402">
        <ele>396.5</ele>
        <time>2016-11-08T15:47:18Z</time>
      </trkpt>
      <trkpt lat="47.3925" lon="4.98414">
        <ele>395.5</ele>
        <time>2016-11-08T15:47:26Z</time>
      </trkpt>
      <trkpt lat="47.39247" lon="4.98427">
        <ele>394.7</ele>
        <time>2016-11-08T15:47:33Z</time>
      </trkpt>
      <trkpt lat="47.39245" lon="4.98443">
        <ele>394.4</ele>
        <time>2016-11-08T15:47:41Z</time>
      </trkpt>
      <trkpt lat="47.39243" lon="4.98457">
        <ele>393.6</ele>
        <time>2016-11-08T15:47:51Z</time>
      </trkpt>
      <trkpt lat="47.39239" lon="4.98469">
        <ele>393</ele>
        <time>2016-11-08T15:47:58Z</time>
      </trkpt>
      <trkpt lat="47.39236" lon="4.98483">
        <ele>392.4</ele>
        <time>2016-11-08T15:48:05Z</time>
      </trkpt>
      <trkpt lat="47.39231" lon="4.98497">
        <ele>391.5</ele>
        <time>2016-11-08T15:48:14Z</time>
      </trkpt>
      <trkpt lat="47.39228" lon="4.9851">
        <ele>391.1</ele>
        <time>2016-11-08T15:48:22Z</time>
      </trkpt>
      <trkpt lat="47.39227" lon="4.98524">
        <ele>390.3</ele>
        <time>2016-11-08T15:48:31Z</time>
      </trkpt>
      <trkpt lat="47.39221" lon="4.98536">
        <ele>389.4</ele>
        <time>2016-11-08T15:48:38Z</time>
      </trkpt>
      <trkpt lat="47.39217" lon="4.98549">
        <ele>388.2</ele>
        <time>2016-11-08T15:48:48Z</time>
      </trkpt>
      <trkpt lat="47.39214" lon="4.98563">
        <ele>387.6</ele>
        <time>2016-11-08T15:48:55Z</time>
      </trkpt>
      <trkpt lat="47.39211" lon="4.98577">
        <ele>387.3</ele>
        <time>2016-11-08T15:49:01Z</time>
      </trkpt>
      <trkpt lat="47.39208" lon="4.9859">
        <ele>385.3</ele>
        <time>2016-11-08T15:49:19Z</time>
      </trkpt>
      <trkpt lat="47.39204" lon="4.98605">
        <ele>384.9</ele>
        <time>2016-11-08T15:49:27Z</time>
      </trkpt>
      <trkpt lat="47.392" lon="4.98618">
        <ele>384.3</ele>
        <time>2016-11-08T15:49:36Z</time>
      </trkpt>
      <trkpt lat="47.39198" lon="4.98631">
        <ele>383.9</ele>
        <time>2016-11-08T15:49:45Z</time>
      </trkpt>
      <trkpt lat="47.39194" lon="4.98645">
        <ele>383.1</ele>
        <time>2016-11-08T15:49:54Z</time>
      </trkpt>
      <trkpt lat="47.39191" lon="4.98659">
        <ele>382.3</ele>
        <time>2016-11-08T15:50:03Z</time>
      </trkpt>
      <trkpt lat="47.39188" lon="4.98672">
        <ele>381.9</ele>
        <time>2016-11-08T15:50:11Z</time>
      </trkpt>
      <trkpt lat="47.39184" lon="4.98684">
        <ele>381.5</ele>
        <time>2016-11-08T15:50:17Z</time>
      </trkpt>
      <trkpt lat="47.3918" lon="4.98698">
        <ele>380.5</ele>
        <time>2016-11-08T15:50:25Z</time>
      </trkpt>
      <trkpt lat="47.39177" lon="4.98711">
        <ele>378.7</ele>
        <time>2016-11-08T15:50:36Z</time>
      </trkpt>
      <trkpt lat="47.39175" lon="4.98724">
        <ele>377</ele>
        <time>2016-11-08T15:50:47Z</time>
      </trkpt>
      <trkpt lat="47.3917" lon="4.98736">
        <ele>376.6</ele>
        <time>2016-11-08T15:50:54Z</time>
      </trkpt>
      <trkpt lat="47.39165" lon="4.98749">
        <ele>376.6</ele>
        <time>2016-11-08T15:51:00Z</time>
      </trkpt>
      <trkpt lat="47.3916" lon="4.9876">
        <ele>376.5</ele>
        <time>2016-11-08T15:51:08Z</time>
      </trkpt>
      <trkpt lat="47.39155" lon="4.98772">
        <ele>375.7</ele>
        <time>2016-11-08T15:51:17Z</time>
      </trkpt>
      <trkpt lat="47.39151" lon="4.98784">
        <ele>375.2</ele>
        <time>2016-11-08T15:51:39Z</time>
      </trkpt>
      <trkpt lat="47.39143" lon="4.98792">
        <ele>373.3</ele>
        <time>2016-11-08T15:52:04Z</time>
      </trkpt>
      <trkpt lat="47.39137" lon="4.98802">
        <ele>372.1</ele>
        <time>2016-11-08T15:52:15Z</time>
      </trkpt>
      <trkpt lat="47.39141" lon="4.98815">
        <ele>370</ele>
        <time>2016-11-08T15:54:23Z</time>
      </trkpt>
      <trkpt lat="47.39147" lon="4.98827">
        <ele>369.7</ele>
        <time>2016-11-08T15:54:35Z</time>
      </trkpt>
      <trkpt lat="47.39149" lon="4.98841">
        <ele>369.3</ele>
        <time>2016-11-08T15:54:46Z</time>
      </trkpt>
      <trkpt lat="47.39145" lon="4.98829">
        <ele>369.8</ele>
        <time>2016-11-08T15:55:50Z</time>
      </trkpt>
      <trkpt lat="47.3914" lon="4.98818">
        <ele>369.7</ele>
        <time>2016-11-08T15:55:59Z</time>
      </trkpt>
      <trkpt lat="47.39136" lon="4.98805">
        <ele>370</ele>
        <time>2016-11-08T15:56:08Z</time>
      </trkpt>
      <trkpt lat="47.39139" lon="4.98793">
        <ele>370.3</ele>
        <time>2016-11-08T15:56:16Z</time>
      </trkpt>
      <trkpt lat="47.39146" lon="4.98782">
        <ele>371.4</ele>
        <time>2016-11-08T15:56:24Z</time>
      </trkpt>
      <trkpt lat="47.39153" lon="4.98771">
        <ele>371.8</ele>
        <time>2016-11-08T15:56:33Z</time>
      </trkpt>
      <trkpt lat="47.39159" lon="4.9876">
        <ele>372</ele>
        <time>2016-11-08T15:56:40Z</time>
      </trkpt>
      <trkpt lat="47.39163" lon="4.98748">
        <ele>373.2</ele>
        <time>2016-11-08T15:56:48Z</time>
      </trkpt>
      <trkpt lat="47.39168" lon="4.98736">
        <ele>374.1</ele>
        <time>2016-11-08T15:56:57Z</time>
      </trkpt>
      <trkpt lat="47.39173" lon="4.98723">
        <ele>374.8</ele>
        <time>2016-11-08T15:57:06Z</time>
      </trkpt>
      <trkpt lat="47.39178" lon="4.98709">
        <ele>374.9</ele>
        <time>2016-11-08T15:57:15Z</time>
      </trkpt>
      <trkpt lat="47.39182" lon="4.98696">
        <ele>376.4</ele>
        <time>2016-11-08T15:57:25Z</time>
      </trkpt>
      <trkpt lat="47.39186" lon="4.98683">
        <ele>377.3</ele>
        <time>2016-11-08T15:57:33Z</time>
      </trkpt>
      <trkpt lat="47.3919" lon="4.9867">
        <ele>378</ele>
        <time>2016-11-08T15:57:41Z</time>
      </trkpt>
      <trkpt lat="47.39193" lon="4.98657">
        <ele>378.2</ele>
        <time>2016-11-08T15:57:47Z</time>
      </trkpt>
      <trkpt lat="47.39194" lon="4.98643">
        <ele>379</ele>
        <time>2016-11-08T15:57:56Z</time>
      </trkpt>
      <trkpt lat="47.39196" lon="4.98629">
        <ele>379.2</ele>
        <time>2016-11-08T15:58:06Z</time>
      </trkpt>
      <trkpt lat="47.392" lon="4.98617">
        <ele>379.6</ele>
        <time>2016-11-08T15:58:14Z</time>
      </trkpt>
      <trkpt lat="47.39204" lon="4.98605">
        <ele>380</ele>
        <time>2016-11-08T15:58:23Z</time>
      </trkpt>
      <trkpt lat="47.39207" lon="4.98592">
        <ele>379.6</ele>
        <time>2016-11-08T15:58:31Z</time>
      </trkpt>
      <trkpt lat="47.39206" lon="4.98578">
        <ele>379.9</ele>
        <time>2016-11-08T15:58:43Z</time>
      </trkpt>
      <trkpt lat="47.39198" lon="4.98571">
        <ele>379.7</ele>
        <time>2016-11-08T15:58:51Z</time>
      </trkpt>
      <trkpt lat="47.39192" lon="4.98561">
        <ele>379.9</ele>
        <time>2016-11-08T15:59:02Z</time>
      </trkpt>
      <trkpt lat="47.39183" lon="4.98552">
        <ele>380.3</ele>
        <time>2016-11-08T15:59:10Z</time>
      </trkpt>
      <trkpt lat="47.39176" lon="4.98542">
        <ele>380.6</ele>
        <time>2016-11-08T15:59:18Z</time>
      </trkpt>
      <trkpt lat="47.39169" lon="4.98534">
        <ele>381</ele>
        <time>2016-11-08T15:59:28Z</time>
      </trkpt>
      <trkpt lat="47.39161" lon="4.98524">
        <ele>381.3</ele>
        <time>2016-11-08T15:59:36Z</time>
      </trkpt>
      <trkpt lat="47.39154" lon="4.98515">
        <ele>381.7</ele>
        <time>2016-11-08T15:59:42Z</time>
      </trkpt>
      <trkpt lat="47.39147" lon="4.98506">
        <ele>381.7</ele>
        <time>2016-11-08T15:59:51Z</time>
      </trkpt>
      <trkpt lat="47.39139" lon="4.98496">
        <ele>382.4</ele>
        <time>2016-11-08T16:00:00Z</time>
      </trkpt>
      <trkpt lat="47.39132" lon="4.98486">
        <ele>382.8</ele>
        <time>2016-11-08T16:00:08Z</time>
      </trkpt>
      <trkpt lat="47.39124" lon="4.98476">
        <ele>383.2</ele>
        <time>2016-11-08T16:00:15Z</time>
      </trkpt>
      <trkpt lat="47.39117" lon="4.98467">
        <ele>383.2</ele>
        <time>2016-11-08T16:00:24Z</time>
      </trkpt>
      <trkpt lat="47.3911" lon="4.98459">
        <ele>383</ele>
        <time>2016-11-08T16:00:30Z</time>
      </trkpt>
      <trkpt lat="47.39103" lon="4.98448">
        <ele>383.3</ele>
        <time>2016-11-08T16:00:40Z</time>
      </trkpt>
      <trkpt lat="47.39094" lon="4.9844">
        <ele>383.2</ele>
        <time>2016-11-08T16:00:46Z</time>
      </trkpt>
      <trkpt lat="47.39087" lon="4.9843">
        <ele>383.2</ele>
        <time>2016-11-08T16:00:55Z</time>
      </trkpt>
      <trkpt lat="47.3908" lon="4.98421">
        <ele>383.1</ele>
        <time>2016-11-08T16:01:03Z</time>
      </trkpt>
      <trkpt lat="47.39074" lon="4.98411">
        <ele>383.4</ele>
        <time>2016-11-08T16:01:11Z</time>
      </trkpt>
      <trkpt lat="47.39066" lon="4.98405">
        <ele>383.4</ele>
        <time>2016-11-08T16:01:18Z</time>
      </trkpt>
      <trkpt lat="47.39059" lon="4.98396">
        <ele>383.7</ele>
        <time>2016-11-08T16:01:26Z</time>
      </trkpt>
      <trkpt lat="47.39052" lon="4.98385">
        <ele>384.3</ele>
        <time>2016-11-08T16:01:34Z</time>
      </trkpt>
      <trkpt lat="47.39045" lon="4.98376">
        <ele>384.5</ele>
        <time>2016-11-08T16:01:41Z</time>
      </trkpt>
      <trkpt lat="47.39038" lon="4.98365">
        <ele>384.6</ele>
        <time>2016-11-08T16:01:49Z</time>
      </trkpt>
      <trkpt lat="47.3903" lon="4.98358">
        <ele>384.7</ele>
        <time>2016-11-08T16:01:57Z</time>
      </trkpt>
      <trkpt lat="47.39022" lon="4.98349">
        <ele>384.7</ele>
        <time>2016-11-08T16:02:06Z</time>
      </trkpt>
      <trkpt lat="47.39014" lon="4.98338">
        <ele>384.8</ele>
        <time>2016-11-08T16:02:14Z</time>
      </trkpt>
      <trkpt lat="47.39006" lon="4.98328">
        <ele>384.9</ele>
        <time>2016-11-08T16:02:23Z</time>
      </trkpt>
      <trkpt lat="47.38999" lon="4.98321">
        <ele>385.1</ele>
        <time>2016-11-08T16:02:30Z</time>
      </trkpt>
      <trkpt lat="47.38992" lon="4.98311">
        <ele>385</ele>
        <time>2016-11-08T16:02:38Z</time>
      </trkpt>
      <trkpt lat="47.38985" lon="4.98301">
        <ele>384.7</ele>
        <time>2016-11-08T16:02:45Z</time>
      </trkpt>
      <trkpt lat="47.38978" lon="4.98291">
        <ele>384.4</ele>
        <time>2016-11-08T16:02:53Z</time>
      </trkpt>
      <trkpt lat="47.38971" lon="4.98282">
        <ele>383.7</ele>
        <time>2016-11-08T16:03:01Z</time>
      </trkpt>
      <trkpt lat="47.38963" lon="4.98276">
        <ele>383.7</ele>
        <time>2016-11-08T16:03:10Z</time>
      </trkpt>
      <trkpt lat="47.38956" lon="4.98266">
        <ele>383.8</ele>
        <time>2016-11-08T16:03:18Z</time>
      </trkpt>
      <trkpt lat="47.38949" lon="4.98257">
        <ele>384.5</ele>
        <time>2016-11-08T16:03:26Z</time>
      </trkpt>
      <trkpt lat="47.38943" lon="4.98247">
        <ele>385.8</ele>
        <time>2016-11-08T16:03:36Z</time>
      </trkpt>
      <trkpt lat="47.38934" lon="4.98241">
        <ele>386.6</ele>
        <time>2016-11-08T16:03:51Z</time>
      </trkpt>
      <trkpt lat="47.38926" lon="4.98236">
        <ele>387.2</ele>
        <time>2016-11-08T16:03:59Z</time>
      </trkpt>
      <trkpt lat="47.38918" lon="4.9823">
        <ele>388.2</ele>
        <time>2016-11-08T16:04:08Z</time>
      </trkpt>
      <trkpt lat="47.3891" lon="4.98222">
        <ele>389.3</ele>
        <time>2016-11-08T16:04:18Z</time>
      </trkpt>
      <trkpt lat="47.38901" lon="4.98214">
        <ele>390.5</ele>
        <time>2016-11-08T16:04:26Z</time>
      </trkpt>
      <trkpt lat="47.38891" lon="4.98211">
        <ele>390.8</ele>
        <time>2016-11-08T16:04:38Z</time>
      </trkpt>
      <trkpt lat="47.38884" lon="4.98203">
        <ele>390.3</ele>
        <time>2016-11-08T16:04:46Z</time>
      </trkpt>
      <trkpt lat="47.38875" lon="4.98197">
        <ele>390.9</ele>
        <time>2016-11-08T16:04:54Z</time>
      </trkpt>
      <trkpt lat="47.38866" lon="4.98191">
        <ele>391</ele>
        <time>2016-11-08T16:05:10Z</time>
      </trkpt>
      <trkpt lat="47.38857" lon="4.98185">
        <ele>391.4</ele>
        <time>2016-11-08T16:05:17Z</time>
      </trkpt>
      <trkpt lat="47.38849" lon="4.98177">
        <ele>391.8</ele>
        <time>2016-11-08T16:05:25Z</time>
      </trkpt>
      <trkpt lat="47.38841" lon="4.9817">
        <ele>392.1</ele>
        <time>2016-11-08T16:05:48Z</time>
      </trkpt>
      <trkpt lat="47.38833" lon="4.98175">
        <ele>391.2</ele>
        <time>2016-11-08T16:05:58Z</time>
      </trkpt>
      <trkpt lat="47.38826" lon="4.98184">
        <ele>390</ele>
        <time>2016-11-08T16:06:15Z</time>
      </trkpt>
      <trkpt lat="47.38816" lon="4.98189">
        <ele>389.5</ele>
        <time>2016-11-08T16:06:21Z</time>
      </trkpt>
      <trkpt lat="47.38807" lon="4.98191">
        <ele>388.7</ele>
        <time>2016-11-08T16:06:32Z</time>
      </trkpt>
      <trkpt lat="47.38801" lon="4.98181">
        <ele>388.7</ele>
        <time>2016-11-08T16:06:40Z</time>
      </trkpt>
      <trkpt lat="47.38795" lon="4.98169">
        <ele>388.8</ele>
        <time>2016-11-08T16:06:49Z</time>
      </trkpt>
      <trkpt lat="47.38789" lon="4.98156">
        <ele>388.7</ele>
        <time>2016-11-08T16:06:57Z</time>
      </trkpt>
      <trkpt lat="47.38785" lon="4.98143">
        <ele>387.7</ele>
        <time>2016-11-08T16:07:07Z</time>
      </trkpt>
      <trkpt lat="47.38777" lon="4.98138">
        <ele>387.4</ele>
        <time>2016-11-08T16:07:16Z</time>
      </trkpt>
      <trkpt lat="47.38768" lon="4.98126">
        <ele>386.7</ele>
        <time>2016-11-08T16:07:27Z</time>
      </trkpt>
      <trkpt lat="47.38761" lon="4.98118">
        <ele>386.1</ele>
        <time>2016-11-08T16:07:36Z</time>
      </trkpt>
      <trkpt lat="47.38754" lon="4.98109">
        <ele>385.7</ele>
        <time>2016-11-08T16:07:45Z</time>
      </trkpt>
      <trkpt lat="47.38746" lon="4.98101">
        <ele>386</ele>
        <time>2016-11-08T16:07:52Z</time>
      </trkpt>
      <trkpt lat="47.38737" lon="4.98096">
        <ele>386.4</ele>
        <time>2016-11-08T16:08:00Z</time>
      </trkpt>
      <trkpt lat="47.3873" lon="4.98086">
        <ele>386</ele>
        <time>2016-11-08T16:08:10Z</time>
      </trkpt>
      <trkpt lat="47.3872" lon="4.98083">
        <ele>386.4</ele>
        <time>2016-11-08T16:08:19Z</time>
      </trkpt>
      <trkpt lat="47.38711" lon="4.98077">
        <ele>387.4</ele>
        <time>2016-11-08T16:09:00Z</time>
      </trkpt>
      <trkpt lat="47.38703" lon="4.98068">
        <ele>387.2</ele>
        <time>2016-11-08T16:09:09Z</time>
      </trkpt>
      <trkpt lat="47.38697" lon="4.98059">
        <ele>387.9</ele>
        <time>2016-11-08T16:09:19Z</time>
      </trkpt>
      <trkpt lat="47.38689" lon="4.9805">
        <ele>387.1</ele>
        <time>2016-11-08T16:09:28Z</time>
      </trkpt>
      <trkpt lat="47.38682" lon="4.9804">
        <ele>386.7</ele>
        <time>2016-11-08T16:09:35Z</time>
      </trkpt>
      <trkpt lat="47.38675" lon="4.98031">
        <ele>386.8</ele>
        <time>2016-11-08T16:09:43Z</time>
      </trkpt>
      <trkpt lat="47.38666" lon="4.98023">
        <ele>387.7</ele>
        <time>2016-11-08T16:09:51Z</time>
      </trkpt>
      <trkpt lat="47.38658" lon="4.98016">
        <ele>388.5</ele>
        <time>2016-11-08T16:09:59Z</time>
      </trkpt>
      <trkpt lat="47.38649" lon="4.98011">
        <ele>388.9</ele>
        <time>2016-11-08T16:10:08Z</time>
      </trkpt>
      <trkpt lat="47.3864" lon="4.98003">
        <ele>389.3</ele>
        <time>2016-11-08T16:10:16Z</time>
      </trkpt>
      <trkpt lat="47.38632" lon="4.97995">
        <ele>389.6</ele>
        <time>2016-11-08T16:10:26Z</time>
      </trkpt>
      <trkpt lat="47.38625" lon="4.97986">
        <ele>390.3</ele>
        <time>2016-11-08T16:10:34Z</time>
      </trkpt>
      <trkpt lat="47.38619" lon="4.97974">
        <ele>390.3</ele>
        <time>2016-11-08T16:10:44Z</time>
      </trkpt>
      <trkpt lat="47.38611" lon="4.97964">
        <ele>390.3</ele>
        <time>2016-11-08T16:10:52Z</time>
      </trkpt>
      <trkpt lat="47.38603" lon="4.97956">
        <ele>390.4</ele>
        <time>2016-11-08T16:11:00Z</time>
      </trkpt>
      <trkpt lat="47.38595" lon="4.97948">
        <ele>390.2</ele>
        <time>2016-11-08T16:11:11Z</time>
      </trkpt>
      <trkpt lat="47.38588" lon="4.97938">
        <ele>390.4</ele>
        <time>2016-11-08T16:11:18Z</time>
      </trkpt>
      <trkpt lat="47.38582" lon="4.97927">
        <ele>391.2</ele>
        <time>2016-11-08T16:11:28Z</time>
      </trkpt>
      <trkpt lat="47.38574" lon="4.97918">
        <ele>391.6</ele>
        <time>2016-11-08T16:11:37Z</time>
      </trkpt>
      <trkpt lat="47.38566" lon="4.97911">
        <ele>391.9</ele>
        <time>2016-11-08T16:11:46Z</time>
      </trkpt>
      <trkpt lat="47.38559" lon="4.97903">
        <ele>392.1</ele>
        <time>2016-11-08T16:11:53Z</time>
      </trkpt>
      <trkpt lat="47.38551" lon="4.97893">
        <ele>392.2</ele>
        <time>2016-11-08T16:12:03Z</time>
      </trkpt>
      <trkpt lat="47.38545" lon="4.97883">
        <ele>392.6</ele>
        <time>2016-11-08T16:12:11Z</time>
      </trkpt>
      <trkpt lat="47.38539" lon="4.97873">
        <ele>392.5</ele>
        <time>2016-11-08T16:12:19Z</time>
      </trkpt>
      <trkpt lat="47.38531" lon="4.97865">
        <ele>393.1</ele>
        <time>2016-11-08T16:12:28Z</time>
      </trkpt>
      <trkpt lat="47.38525" lon="4.97856">
        <ele>392.8</ele>
        <time>2016-11-08T16:12:36Z</time>
      </trkpt>
      <trkpt lat="47.38519" lon="4.97844">
        <ele>393</ele>
        <time>2016-11-08T16:12:46Z</time>
      </trkpt>
      <trkpt lat="47.38511" lon="4.9785">
        <ele>391.6</ele>
        <time>2016-11-08T16:13:17Z</time>
      </trkpt>
      <trkpt lat="47.38504" lon="4.97859">
        <ele>391.2</ele>
        <time>2016-11-08T16:13:25Z</time>
      </trkpt>
      <trkpt lat="47.38496" lon="4.97867">
        <ele>390.7</ele>
        <time>2016-11-08T16:13:33Z</time>
      </trkpt>
      <trkpt lat="47.38488" lon="4.97875">
        <ele>390.6</ele>
        <time>2016-11-08T16:13:41Z</time>
      </trkpt>
      <trkpt lat="47.38481" lon="4.97886">
        <ele>390</ele>
        <time>2016-11-08T16:13:51Z</time>
      </trkpt>
      <trkpt lat="47.38473" lon="4.97895">
        <ele>389.1</ele>
        <time>2016-11-08T16:14:04Z</time>
      </trkpt>
      <trkpt lat="47.38466" lon="4.97905">
        <ele>388.6</ele>
        <time>2016-11-08T16:14:11Z</time>
      </trkpt>
      <trkpt lat="47.3846" lon="4.97914">
        <ele>387.9</ele>
        <time>2016-11-08T16:14:22Z</time>
      </trkpt>
      <trkpt lat="47.38452" lon="4.97923">
        <ele>387.1</ele>
        <time>2016-11-08T16:14:32Z</time>
      </trkpt>
      <trkpt lat="47.38445" lon="4.97933">
        <ele>386.6</ele>
        <time>2016-11-08T16:14:40Z</time>
      </trkpt>
      <trkpt lat="47.38437" lon="4.97942">
        <ele>386</ele>
        <time>2016-11-08T16:14:48Z</time>
      </trkpt>
      <trkpt lat="47.3843" lon="4.97952">
        <ele>386.1</ele>
        <time>2016-11-08T16:14:58Z</time>
      </trkpt>
      <trkpt lat="47.38423" lon="4.97961">
        <ele>385.7</ele>
        <time>2016-11-08T16:15:06Z</time>
      </trkpt>
      <trkpt lat="47.38416" lon="4.97969">
        <ele>385.2</ele>
        <time>2016-11-08T16:15:15Z</time>
      </trkpt>
      <trkpt lat="47.38408" lon="4.97979">
        <ele>384.7</ele>
        <time>2016-11-08T16:15:24Z</time>
      </trkpt>
      <trkpt lat="47.38402" lon="4.97988">
        <ele>384.4</ele>
        <time>2016-11-08T16:15:31Z</time>
      </trkpt>
      <trkpt lat="47.38394" lon="4.97996">
        <ele>384.3</ele>
        <time>2016-11-08T16:15:39Z</time>
      </trkpt>
      <trkpt lat="47.38388" lon="4.98007">
        <ele>383.8</ele>
        <time>2016-11-08T16:15:47Z</time>
      </trkpt>
      <trkpt lat="47.38381" lon="4.98015">
        <ele>383.3</ele>
        <time>2016-11-08T16:15:57Z</time>
      </trkpt>
      <trkpt lat="47.38375" lon="4.98026">
        <ele>383.1</ele>
        <time>2016-11-08T16:16:04Z</time>
      </trkpt>
      <trkpt lat="47.38368" lon="4.98035">
        <ele>382.3</ele>
        <time>2016-11-08T16:16:13Z</time>
      </trkpt>
      <trkpt lat="47.38362" lon="4.98045">
        <ele>381.8</ele>
        <time>2016-11-08T16:16:21Z</time>
      </trkpt>
      <trkpt lat="47.38355" lon="4.98054">
        <ele>381.2</ele>
        <time>2016-11-08T16:16:28Z</time>
      </trkpt>
      <trkpt lat="47.38349" lon="4.98065">
        <ele>381</ele>
        <time>2016-11-08T16:16:36Z</time>
      </trkpt>
      <trkpt lat="47.38342" lon="4.98076">
        <ele>380.5</ele>
        <time>2016-11-08T16:16:44Z</time>
      </trkpt>
      <trkpt lat="47.38335" lon="4.98085">
        <ele>379.8</ele>
        <time>2016-11-08T16:16:53Z</time>
      </trkpt>
      <trkpt lat="47.3833" lon="4.98096">
        <ele>379.4</ele>
        <time>2016-11-08T16:17:00Z</time>
      </trkpt>
      <trkpt lat="47.38323" lon="4.98107">
        <ele>379.2</ele>
        <time>2016-11-08T16:17:10Z</time>
      </trkpt>
      <trkpt lat="47.38315" lon="4.98117">
        <ele>378.7</ele>
        <time>2016-11-08T16:17:19Z</time>
      </trkpt>
      <trkpt lat="47.38308" lon="4.98126">
        <ele>378</ele>
        <time>2016-11-08T16:17:27Z</time>
      </trkpt>
      <trkpt lat="47.38302" lon="4.98138">
        <ele>377.5</ele>
        <time>2016-11-08T16:17:34Z</time>
      </trkpt>
      <trkpt lat="47.38295" lon="4.98148">
        <ele>376.9</ele>
        <time>2016-11-08T16:17:42Z</time>
      </trkpt>
      <trkpt lat="47.38289" lon="4.98158">
        <ele>376.1</ele>
        <time>2016-11-08T16:17:50Z</time>
      </trkpt>
      <trkpt lat="47.38282" lon="4.98168">
        <ele>375.1</ele>
        <time>2016-11-08T16:17:58Z</time>
      </trkpt>
      <trkpt lat="47.38277" lon="4.9818">
        <ele>374</ele>
        <time>2016-11-08T16:18:05Z</time>
      </trkpt>
      <trkpt lat="47.38277" lon="4.98194">
        <ele>372.9</ele>
        <time>2016-11-08T16:18:14Z</time>
      </trkpt>
      <trkpt lat="47.38274" lon="4.98206">
        <ele>371.8</ele>
        <time>2016-11-08T16:18:54Z</time>
      </trkpt>
      <trkpt lat="47.38264" lon="4.98209">
        <ele>370.3</ele>
        <time>2016-11-08T16:19:26Z</time>
      </trkpt>
      <trkpt lat="47.38257" lon="4.98221">
        <ele>369.3</ele>
        <time>2016-11-08T16:19:35Z</time>
      </trkpt>
      <trkpt lat="47.38252" lon="4.98232">
        <ele>368.7</ele>
        <time>2016-11-08T16:19:43Z</time>
      </trkpt>
      <trkpt lat="47.38247" lon="4.98244">
        <ele>368.1</ele>
        <time>2016-11-08T16:19:51Z</time>
      </trkpt>
      <trkpt lat="47.38241" lon="4.98255">
        <ele>367.5</ele>
        <time>2016-11-08T16:19:58Z</time>
      </trkpt>
      <trkpt lat="47.38236" lon="4.98267">
        <ele>366.8</ele>
        <time>2016-11-08T16:20:07Z</time>
      </trkpt>
      <trkpt lat="47.38231" lon="4.98279">
        <ele>366</ele>
        <time>2016-11-08T16:20:15Z</time>
      </trkpt>
      <trkpt lat="47.38225" lon="4.9829">
        <ele>365.1</ele>
        <time>2016-11-08T16:20:22Z</time>
      </trkpt>
      <trkpt lat="47.38221" lon="4.98302">
        <ele>364.3</ele>
        <time>2016-11-08T16:20:30Z</time>
      </trkpt>
      <trkpt lat="47.38216" lon="4.98315">
        <ele>363.4</ele>
        <time>2016-11-08T16:20:38Z</time>
      </trkpt>
      <trkpt lat="47.38211" lon="4.98327">
        <ele>362.7</ele>
        <time>2016-11-08T16:20:45Z</time>
      </trkpt>
      <trkpt lat="47.38205" lon="4.98339">
        <ele>361.5</ele>
        <time>2016-11-08T16:20:54Z</time>
      </trkpt>
      <trkpt lat="47.382" lon="4.98351">
        <ele>360.8</ele>
        <time>2016-11-08T16:21:01Z</time>
      </trkpt>
      <trkpt lat="47.38195" lon="4.98363">
        <ele>360.2</ele>
        <time>2016-11-08T16:21:08Z</time>
      </trkpt>
      <trkpt lat="47.38189" lon="4.98375">
        <ele>359.2</ele>
        <time>2016-11-08T16:21:16Z</time>
      </trkpt>
      <trkpt lat="47.38183" lon="4.98388">
        <ele>358.4</ele>
        <time>2016-11-08T16:21:24Z</time>
      </trkpt>
      <trkpt lat="47.38179" lon="4.984">
        <ele>357.6</ele>
        <time>2016-11-08T16:21:34Z</time>
      </trkpt>
      <trkpt lat="47.38174" lon="4.98414">
        <ele>356.9</ele>
        <time>2016-11-08T16:21:42Z</time>
      </trkpt>
      <trkpt lat="47.38168" lon="4.98426">
        <ele>356.3</ele>
        <time>2016-11-08T16:21:48Z</time>
      </trkpt>
      <trkpt lat="47.38163" lon="4.98439">
        <ele>355.4</ele>
        <time>2016-11-08T16:21:56Z</time>
      </trkpt>
      <trkpt lat="47.38157" lon="4.9845">
        <ele>354.3</ele>
        <time>2016-11-08T16:22:03Z</time>
      </trkpt>
      <trkpt lat="47.38152" lon="4.98463">
        <ele>353.4</ele>
        <time>2016-11-08T16:22:13Z</time>
      </trkpt>
      <trkpt lat="47.38146" lon="4.98475">
        <ele>352.4</ele>
        <time>2016-11-08T16:22:21Z</time>
      </trkpt>
      <trkpt lat="47.38138" lon="4.98485">
        <ele>351.4</ele>
        <time>2016-11-08T16:22:29Z</time>
      </trkpt>
      <trkpt lat="47.38129" lon="4.98491">
        <ele>351.1</ele>
        <time>2016-11-08T16:22:36Z</time>
      </trkpt>
      <trkpt lat="47.38121" lon="4.98494">
        <ele>350.6</ele>
        <time>2016-11-08T16:22:44Z</time>
      </trkpt>
      <trkpt lat="47.38111" lon="4.98495">
        <ele>350.4</ele>
        <time>2016-11-08T16:22:51Z</time>
      </trkpt>
      <trkpt lat="47.38101" lon="4.98498">
        <ele>350</ele>
        <time>2016-11-08T16:22:57Z</time>
      </trkpt>
      <trkpt lat="47.38091" lon="4.98495">
        <ele>349.5</ele>
        <time>2016-11-08T16:23:08Z</time>
      </trkpt>
      <trkpt lat="47.38082" lon="4.98492">
        <ele>349.3</ele>
        <time>2016-11-08T16:23:15Z</time>
      </trkpt>
      <trkpt lat="47.38073" lon="4.98492">
        <ele>349.2</ele>
        <time>2016-11-08T16:23:22Z</time>
      </trkpt>
      <trkpt lat="47.38063" lon="4.98489">
        <ele>349.3</ele>
        <time>2016-11-08T16:23:29Z</time>
      </trkpt>
      <trkpt lat="47.38053" lon="4.98488">
        <ele>348.8</ele>
        <time>2016-11-08T16:23:38Z</time>
      </trkpt>
      <trkpt lat="47.38044" lon="4.98487">
        <ele>348.6</ele>
        <time>2016-11-08T16:23:45Z</time>
      </trkpt>
      <trkpt lat="47.38033" lon="4.98486">
        <ele>348</ele>
        <time>2016-11-08T16:23:54Z</time>
      </trkpt>
      <trkpt lat="47.38023" lon="4.98486">
        <ele>347.3</ele>
        <time>2016-11-08T16:24:07Z</time>
      </trkpt>
      <trkpt lat="47.38014" lon="4.98484">
        <ele>346.7</ele>
        <time>2016-11-08T16:24:15Z</time>
      </trkpt>
      <trkpt lat="47.38004" lon="4.98486">
        <ele>346.3</ele>
        <time>2016-11-08T16:24:23Z</time>
      </trkpt>
      <trkpt lat="47.37995" lon="4.98485">
        <ele>346.1</ele>
        <time>2016-11-08T16:24:31Z</time>
      </trkpt>
      <trkpt lat="47.37986" lon="4.98486">
        <ele>346.2</ele>
        <time>2016-11-08T16:24:42Z</time>
      </trkpt>
      <trkpt lat="47.37976" lon="4.98487">
        <ele>346.3</ele>
        <time>2016-11-08T16:24:53Z</time>
      </trkpt>
      <trkpt lat="47.37966" lon="4.98489">
        <ele>346.8</ele>
        <time>2016-11-08T16:25:03Z</time>
      </trkpt>
      <trkpt lat="47.37957" lon="4.98491">
        <ele>347.9</ele>
        <time>2016-11-08T16:25:14Z</time>
      </trkpt>
      <trkpt lat="47.37947" lon="4.98493">
        <ele>349.9</ele>
        <time>2016-11-08T16:25:42Z</time>
      </trkpt>
      <trkpt lat="47.37938" lon="4.98494">
        <ele>350.6</ele>
        <time>2016-11-08T16:25:55Z</time>
      </trkpt>
      <trkpt lat="47.37928" lon="4.98498">
        <ele>350.9</ele>
        <time>2016-11-08T16:26:08Z</time>
      </trkpt>
      <trkpt lat="47.37919" lon="4.98499">
        <ele>351.6</ele>
        <time>2016-11-08T16:26:20Z</time>
      </trkpt>
      <trkpt lat="47.3791" lon="4.985">
        <ele>353.1</ele>
        <time>2016-11-08T16:26:31Z</time>
      </trkpt>
      <trkpt lat="47.37901" lon="4.98503">
        <ele>354.2</ele>
        <time>2016-11-08T16:26:42Z</time>
      </trkpt>
      <trkpt lat="47.37892" lon="4.98506">
        <ele>355.1</ele>
        <time>2016-11-08T16:26:51Z</time>
      </trkpt>
      <trkpt lat="47.37882" lon="4.98507">
        <ele>356.3</ele>
        <time>2016-11-08T16:27:07Z</time>
      </trkpt>
      <trkpt lat="47.37873" lon="4.98511">
        <ele>357.3</ele>
        <time>2016-11-08T16:27:18Z</time>
      </trkpt>
      <trkpt lat="47.37864" lon="4.98513">
        <ele>359.4</ele>
        <time>2016-11-08T16:27:30Z</time>
      </trkpt>
      <trkpt lat="47.37855" lon="4.98514">
        <ele>360.8</ele>
        <time>2016-11-08T16:27:42Z</time>
      </trkpt>
      <trkpt lat="47.37846" lon="4.98516">
        <ele>362.3</ele>
        <time>2016-11-08T16:27:53Z</time>
      </trkpt>
      <trkpt lat="47.37837" lon="4.98513">
        <ele>363.7</ele>
        <time>2016-11-08T16:28:02Z</time>
      </trkpt>
      <trkpt lat="47.37826" lon="4.98512">
        <ele>366.1</ele>
        <time>2016-11-08T16:28:14Z</time>
      </trkpt>
      <trkpt lat="47.37817" lon="4.9851">
        <ele>367.8</ele>
        <time>2016-11-08T16:28:27Z</time>
      </trkpt>
      <trkpt lat="47.37807" lon="4.98508">
        <ele>368.6</ele>
        <time>2016-11-08T16:28:40Z</time>
      </trkpt>
      <trkpt lat="47.37797" lon="4.98503">
        <ele>370.9</ele>
        <time>2016-11-08T16:28:53Z</time>
      </trkpt>
      <trkpt lat="47.37788" lon="4.985">
        <ele>372.5</ele>
        <time>2016-11-08T16:29:03Z</time>
      </trkpt>
      <trkpt lat="47.37779" lon="4.985">
        <ele>373.2</ele>
        <time>2016-11-08T16:29:12Z</time>
      </trkpt>
      <trkpt lat="47.37769" lon="4.98499">
        <ele>378.7</ele>
        <time>2016-11-08T16:31:52Z</time>
      </trkpt>
      <trkpt lat="47.3776" lon="4.985">
        <ele>379.8</ele>
        <time>2016-11-08T16:31:58Z</time>
      </trkpt>
      <trkpt lat="47.37751" lon="4.98505">
        <ele>380.8</ele>
        <time>2016-11-08T16:32:20Z</time>
      </trkpt>
      <trkpt lat="47.37742" lon="4.9851">
        <ele>380.6</ele>
        <time>2016-11-08T16:32:27Z</time>
      </trkpt>
      <trkpt lat="47.37734" lon="4.98514">
        <ele>380.9</ele>
        <time>2016-11-08T16:32:42Z</time>
      </trkpt>
      <trkpt lat="47.37725" lon="4.98519">
        <ele>381.3</ele>
        <time>2016-11-08T16:32:53Z</time>
      </trkpt>
      <trkpt lat="47.37715" lon="4.98522">
        <ele>382.4</ele>
        <time>2016-11-08T16:33:07Z</time>
      </trkpt>
      <trkpt lat="47.37706" lon="4.98524">
        <ele>383.3</ele>
        <time>2016-11-08T16:33:18Z</time>
      </trkpt>
      <trkpt lat="47.37698" lon="4.98528">
        <ele>384.7</ele>
        <time>2016-11-08T16:33:31Z</time>
      </trkpt>
      <trkpt lat="47.37688" lon="4.98531">
        <ele>385.1</ele>
        <time>2016-11-08T16:33:44Z</time>
      </trkpt>
      <trkpt lat="47.3768" lon="4.98535">
        <ele>386.1</ele>
        <time>2016-11-08T16:34:04Z</time>
      </trkpt>
      <trkpt lat="47.3767" lon="4.98536">
        <ele>387.2</ele>
        <time>2016-11-08T16:34:19Z</time>
      </trkpt>
      <trkpt lat="47.37661" lon="4.98539">
        <ele>387.7</ele>
        <time>2016-11-08T16:34:30Z</time>
      </trkpt>
      <trkpt lat="47.37652" lon="4.98544">
        <ele>388.1</ele>
        <time>2016-11-08T16:34:39Z</time>
      </trkpt>
      <trkpt lat="47.37644" lon="4.9855">
        <ele>390.1</ele>
        <time>2016-11-08T16:34:50Z</time>
      </trkpt>
      <trkpt lat="47.37634" lon="4.98556">
        <ele>391.8</ele>
        <time>2016-11-08T16:35:15Z</time>
      </trkpt>
      <trkpt lat="47.37626" lon="4.98564">
        <ele>395.2</ele>
        <time>2016-11-08T16:36:29Z</time>
      </trkpt>
      <trkpt lat="47.37616" lon="4.98566">
        <ele>395.4</ele>
        <time>2016-11-08T16:36:35Z</time>
      </trkpt>
      <trkpt lat="47.37607" lon="4.9857">
        <ele>395.8</ele>
        <time>2016-11-08T16:36:44Z</time>
      </trkpt>
      <trkpt lat="47.37598" lon="4.98575">
        <ele>396</ele>
        <time>2016-11-08T16:36:53Z</time>
      </trkpt>
      <trkpt lat="47.37589" lon="4.98579">
        <ele>396.2</ele>
        <time>2016-11-08T16:37:01Z</time>
      </trkpt>
      <trkpt lat="47.3758" lon="4.9858">
        <ele>396.4</ele>
        <time>2016-11-08T16:37:12Z</time>
      </trkpt>
      <trkpt lat="47.37571" lon="4.98584">
        <ele>397.8</ele>
        <time>2016-11-08T16:37:55Z</time>
      </trkpt>
      <trkpt lat="47.37561" lon="4.98587">
        <ele>397.9</ele>
        <time>2016-11-08T16:38:05Z</time>
      </trkpt>
      <trkpt lat="47.37553" lon="4.9859">
        <ele>398</ele>
        <time>2016-11-08T16:38:16Z</time>
      </trkpt>
      <trkpt lat="47.37544" lon="4.98595">
        <ele>398.4</ele>
        <time>2016-11-08T16:38:25Z</time>
      </trkpt>
      <trkpt lat="47.37534" lon="4.98599">
        <ele>399.5</ele>
        <time>2016-11-08T16:38:43Z</time>
      </trkpt>
      <trkpt lat="47.37525" lon="4.98603">
        <ele>400</ele>
        <time>2016-11-08T16:38:50Z</time>
      </trkpt>
      <trkpt lat="47.37517" lon="4.98609">
        <ele>400.2</ele>
        <time>2016-11-08T16:38:57Z</time>
      </trkpt>
      <trkpt lat="47.37508" lon="4.98613">
        <ele>400.8</ele>
        <time>2016-11-08T16:39:04Z</time>
      </trkpt>
      <trkpt lat="47.37499" lon="4.98616">
        <ele>401.5</ele>
        <time>2016-11-08T16:39:12Z</time>
      </trkpt>
      <trkpt lat="47.3749" lon="4.98621">
        <ele>401.9</ele>
        <time>2016-11-08T16:39:21Z</time>
      </trkpt>
      <trkpt lat="47.37481" lon="4.98625">
        <ele>401.4</ele>
        <time>2016-11-08T16:39:29Z</time>
      </trkpt>
      <trkpt lat="47.37472" lon="4.98627">
        <ele>402.3</ele>
        <time>2016-11-08T16:40:10Z</time>
      </trkpt>
      <trkpt lat="47.37462" lon="4.98627">
        <ele>403.1</ele>
        <time>2016-11-08T16:40:18Z</time>
      </trkpt>
      <trkpt lat="47.37452" lon="4.98629">
        <ele>404.6</ele>
        <time>2016-11-08T16:40:26Z</time>
      </trkpt>
      <trkpt lat="47.37443" lon="4.98633">
        <ele>406</ele>
        <time>2016-11-08T16:40:33Z</time>
      </trkpt>
      <trkpt lat="47.37434" lon="4.98641">
        <ele>407.4</ele>
        <time>2016-11-08T16:40:41Z</time>
      </trkpt>
      <trkpt lat="47.37426" lon="4.98649">
        <ele>408.3</ele>
        <time>2016-11-08T16:40:50Z</time>
      </trkpt>
      <trkpt lat="47.37417" lon="4.98656">
        <ele>408.6</ele>
        <time>2016-11-08T16:40:57Z</time>
      </trkpt>
      <trkpt lat="47.37408" lon="4.98662">
        <ele>408.5</ele>
        <time>2016-11-08T16:41:03Z</time>
      </trkpt>
      <trkpt lat="47.37399" lon="4.98667">
        <ele>408.2</ele>
        <time>2016-11-08T16:41:11Z</time>
      </trkpt>
      <trkpt lat="47.3739" lon="4.98673">
        <ele>408</ele>
        <time>2016-11-08T16:41:17Z</time>
      </trkpt>
      <trkpt lat="47.37381" lon="4.98678">
        <ele>407.3</ele>
        <time>2016-11-08T16:41:26Z</time>
      </trkpt>
      <trkpt lat="47.37372" lon="4.98684">
        <ele>407</ele>
        <time>2016-11-08T16:41:33Z</time>
      </trkpt>
      <trkpt lat="47.37364" lon="4.98687">
        <ele>406.8</ele>
        <time>2016-11-08T16:41:40Z</time>
      </trkpt>
      <trkpt lat="47.37355" lon="4.98693">
        <ele>406.6</ele>
        <time>2016-11-08T16:41:47Z</time>
      </trkpt>
      <trkpt lat="47.37346" lon="4.98698">
        <ele>406.1</ele>
        <time>2016-11-08T16:41:55Z</time>
      </trkpt>
      <trkpt lat="47.37337" lon="4.98703">
        <ele>405.7</ele>
        <time>2016-11-08T16:42:01Z</time>
      </trkpt>
      <trkpt lat="47.37327" lon="4.98705">
        <ele>405.6</ele>
        <time>2016-11-08T16:42:08Z</time>
      </trkpt>
      <trkpt lat="47.37318" lon="4.98709">
        <ele>405.7</ele>
        <time>2016-11-08T16:42:16Z</time>
      </trkpt>
      <trkpt lat="47.3731" lon="4.98714">
        <ele>405.7</ele>
        <time>2016-11-08T16:42:23Z</time>
      </trkpt>
      <trkpt lat="47.37301" lon="4.9872">
        <ele>405.5</ele>
        <time>2016-11-08T16:42:30Z</time>
      </trkpt>
      <trkpt lat="47.37292" lon="4.98724">
        <ele>405.2</ele>
        <time>2016-11-08T16:42:37Z</time>
      </trkpt>
      <trkpt lat="47.37283" lon="4.98729">
        <ele>405.3</ele>
        <time>2016-11-08T16:42:43Z</time>
      </trkpt>
      <trkpt lat="47.37274" lon="4.98735">
        <ele>405.1</ele>
        <time>2016-11-08T16:42:50Z</time>
      </trkpt>
      <trkpt lat="47.37265" lon="4.98739">
        <ele>405.1</ele>
        <time>2016-11-08T16:42:59Z</time>
      </trkpt>
      <trkpt lat="47.37255" lon="4.98743">
        <ele>405.2</ele>
        <time>2016-11-08T16:43:07Z</time>
      </trkpt>
      <trkpt lat="47.37246" lon="4.98742">
        <ele>405.7</ele>
        <time>2016-11-08T16:43:19Z</time>
      </trkpt>
      <trkpt lat="47.37236" lon="4.98738">
        <ele>405.2</ele>
        <time>2016-11-08T16:43:26Z</time>
      </trkpt>
      <trkpt lat="47.37227" lon="4.98734">
        <ele>404.5</ele>
        <time>2016-11-08T16:43:36Z</time>
      </trkpt>
      <trkpt lat="47.37217" lon="4.98729">
        <ele>404.6</ele>
        <time>2016-11-08T16:43:45Z</time>
      </trkpt>
      <trkpt lat="47.37208" lon="4.98725">
        <ele>405</ele>
        <time>2016-11-08T16:43:52Z</time>
      </trkpt>
      <trkpt lat="47.37199" lon="4.9872">
        <ele>405.8</ele>
        <time>2016-11-08T16:44:00Z</time>
      </trkpt>
      <trkpt lat="47.3719" lon="4.98715">
        <ele>405.9</ele>
        <time>2016-11-08T16:44:06Z</time>
      </trkpt>
      <trkpt lat="47.37181" lon="4.98712">
        <ele>406.1</ele>
        <time>2016-11-08T16:44:14Z</time>
      </trkpt>
      <trkpt lat="47.37171" lon="4.98708">
        <ele>406.4</ele>
        <time>2016-11-08T16:44:21Z</time>
      </trkpt>
      <trkpt lat="47.37162" lon="4.98705">
        <ele>406.4</ele>
        <time>2016-11-08T16:44:28Z</time>
      </trkpt>
      <trkpt lat="47.37153" lon="4.98699">
        <ele>407</ele>
        <time>2016-11-08T16:44:37Z</time>
      </trkpt>
      <trkpt lat="47.37143" lon="4.98696">
        <ele>407.9</ele>
        <time>2016-11-08T16:44:46Z</time>
      </trkpt>
      <trkpt lat="47.37134" lon="4.98694">
        <ele>408</ele>
        <time>2016-11-08T16:44:57Z</time>
      </trkpt>
      <trkpt lat="47.37124" lon="4.98691">
        <ele>408.6</ele>
        <time>2016-11-08T16:45:20Z</time>
      </trkpt>
      <trkpt lat="47.37115" lon="4.98688">
        <ele>408.9</ele>
        <time>2016-11-08T16:45:28Z</time>
      </trkpt>
      <trkpt lat="47.37106" lon="4.98686">
        <ele>409.6</ele>
        <time>2016-11-08T16:45:38Z</time>
      </trkpt>
      <trkpt lat="47.37097" lon="4.98686">
        <ele>410</ele>
        <time>2016-11-08T16:45:47Z</time>
      </trkpt>
      <trkpt lat="47.37088" lon="4.98687">
        <ele>409.5</ele>
        <time>2016-11-08T16:45:56Z</time>
      </trkpt>
      <trkpt lat="47.37078" lon="4.98685">
        <ele>408.7</ele>
        <time>2016-11-08T16:46:04Z</time>
      </trkpt>
      <trkpt lat="47.37068" lon="4.98683">
        <ele>408.5</ele>
        <time>2016-11-08T16:46:11Z</time>
      </trkpt>
      <trkpt lat="47.37059" lon="4.98683">
        <ele>408.7</ele>
        <time>2016-11-08T16:46:19Z</time>
      </trkpt>
      <trkpt lat="47.3705" lon="4.98682">
        <ele>408.8</ele>
        <time>2016-11-08T16:46:27Z</time>
      </trkpt>
      <trkpt lat="47.3704" lon="4.98682">
        <ele>409.7</ele>
        <time>2016-11-08T16:46:35Z</time>
      </trkpt>
      <trkpt lat="47.37031" lon="4.98678">
        <ele>409.9</ele>
        <time>2016-11-08T16:46:44Z</time>
      </trkpt>
      <trkpt lat="47.37021" lon="4.98674">
        <ele>410.2</ele>
        <time>2016-11-08T16:47:35Z</time>
      </trkpt>
      <trkpt lat="47.37012" lon="4.98674">
        <ele>411.9</ele>
        <time>2016-11-08T16:48:04Z</time>
      </trkpt>
      <trkpt lat="47.37003" lon="4.98671">
        <ele>412.2</ele>
        <time>2016-11-08T16:48:16Z</time>
      </trkpt>
      <trkpt lat="47.36994" lon="4.98668">
        <ele>412.7</ele>
        <time>2016-11-08T16:48:24Z</time>
      </trkpt>
      <trkpt lat="47.36985" lon="4.98665">
        <ele>412.9</ele>
        <time>2016-11-08T16:48:32Z</time>
      </trkpt>
      <trkpt lat="47.36975" lon="4.98662">
        <ele>412.7</ele>
        <time>2016-11-08T16:48:43Z</time>
      </trkpt>
      <trkpt lat="47.36966" lon="4.9866">
        <ele>413</ele>
        <time>2016-11-08T16:48:52Z</time>
      </trkpt>
      <trkpt lat="47.36956" lon="4.98657">
        <ele>413.1</ele>
        <time>2016-11-08T16:48:59Z</time>
      </trkpt>
      <trkpt lat="47.36947" lon="4.98654">
        <ele>413.5</ele>
        <time>2016-11-08T16:49:07Z</time>
      </trkpt>
      <trkpt lat="47.36938" lon="4.98653">
        <ele>413.7</ele>
        <time>2016-11-08T16:49:15Z</time>
      </trkpt>
      <trkpt lat="47.36928" lon="4.98652">
        <ele>414.3</ele>
        <time>2016-11-08T16:49:25Z</time>
      </trkpt>
      <trkpt lat="47.3692" lon="4.98647">
        <ele>414.6</ele>
        <time>2016-11-08T16:49:33Z</time>
      </trkpt>
      <trkpt lat="47.3691" lon="4.98642">
        <ele>414.5</ele>
        <time>2016-11-08T16:49:41Z</time>
      </trkpt>
      <trkpt lat="47.36901" lon="4.98638">
        <ele>414.9</ele>
        <time>2016-11-08T16:49:48Z</time>
      </trkpt>
      <trkpt lat="47.36896" lon="4.98627">
        <ele>415.3</ele>
        <time>2016-11-08T16:49:55Z</time>
      </trkpt>
      <trkpt lat="47.369" lon="4.98614">
        <ele>414.9</ele>
        <time>2016-11-08T16:50:03Z</time>
      </trkpt>
      <trkpt lat="47.36903" lon="4.98601">
        <ele>414.3</ele>
        <time>2016-11-08T16:50:10Z</time>
      </trkpt>
      <trkpt lat="47.36907" lon="4.98587">
        <ele>414.4</ele>
        <time>2016-11-08T16:50:18Z</time>
      </trkpt>
      <trkpt lat="47.36911" lon="4.98575">
        <ele>414.4</ele>
        <time>2016-11-08T16:50:26Z</time>
      </trkpt>
      <trkpt lat="47.36914" lon="4.98562">
        <ele>414.4</ele>
        <time>2016-11-08T16:50:34Z</time>
      </trkpt>
      <trkpt lat="47.36918" lon="4.98548">
        <ele>414.7</ele>
        <time>2016-11-08T16:50:42Z</time>
      </trkpt>
      <trkpt lat="47.36922" lon="4.98536">
        <ele>414.8</ele>
        <time>2016-11-08T16:50:49Z</time>
      </trkpt>
      <trkpt lat="47.36926" lon="4.98522">
        <ele>414.7</ele>
        <time>2016-11-08T16:50:57Z</time>
      </trkpt>
      <trkpt lat="47.3693" lon="4.98509">
        <ele>415</ele>
        <time>2016-11-08T16:51:06Z</time>
      </trkpt>
      <trkpt lat="47.36933" lon="4.98496">
        <ele>415.1</ele>
        <time>2016-11-08T16:51:12Z</time>
      </trkpt>
      <trkpt lat="47.36936" lon="4.98482">
        <ele>415.1</ele>
        <time>2016-11-08T16:51:20Z</time>
      </trkpt>
      <trkpt lat="47.36939" lon="4.98469">
        <ele>415</ele>
        <time>2016-11-08T16:51:27Z</time>
      </trkpt>
      <trkpt lat="47.36941" lon="4.98455">
        <ele>415.4</ele>
        <time>2016-11-08T16:51:36Z</time>
      </trkpt>
      <trkpt lat="47.36944" lon="4.98443">
        <ele>415.4</ele>
        <time>2016-11-08T16:51:43Z</time>
      </trkpt>
      <trkpt lat="47.36945" lon="4.98428">
        <ele>414.8</ele>
        <time>2016-11-08T16:51:50Z</time>
      </trkpt>
      <trkpt lat="47.36948" lon="4.98415">
        <ele>414.2</ele>
        <time>2016-11-08T16:51:58Z</time>
      </trkpt>
      <trkpt lat="47.3695" lon="4.984">
        <ele>414</ele>
        <time>2016-11-08T16:52:06Z</time>
      </trkpt>
      <trkpt lat="47.36952" lon="4.98387">
        <ele>414.5</ele>
        <time>2016-11-08T16:52:13Z</time>
      </trkpt>
      <trkpt lat="47.36956" lon="4.98375">
        <ele>414.6</ele>
        <time>2016-11-08T16:52:20Z</time>
      </trkpt>
      <trkpt lat="47.36959" lon="4.98362">
        <ele>415</ele>
        <time>2016-11-08T16:52:29Z</time>
      </trkpt>
      <trkpt lat="47.3696" lon="4.98347">
        <ele>414.5</ele>
        <time>2016-11-08T16:52:37Z</time>
      </trkpt>
      <trkpt lat="47.36963" lon="4.98334">
        <ele>413.8</ele>
        <time>2016-11-08T16:52:45Z</time>
      </trkpt>
      <trkpt lat="47.36967" lon="4.9832">
        <ele>413.8</ele>
        <time>2016-11-08T16:52:53Z</time>
      </trkpt>
      <trkpt lat="47.36969" lon="4.98305">
        <ele>413.5</ele>
        <time>2016-11-08T16:53:00Z</time>
      </trkpt>
      <trkpt lat="47.36973" lon="4.98291">
        <ele>413.3</ele>
        <time>2016-11-08T16:53:09Z</time>
      </trkpt>
      <trkpt lat="47.36975" lon="4.98278">
        <ele>412.8</ele>
        <time>2016-11-08T16:53:16Z</time>
      </trkpt>
      <trkpt lat="47.36978" lon="4.98264">
        <ele>412.4</ele>
        <time>2016-11-08T16:53:23Z</time>
      </trkpt>
      <trkpt lat="47.3698" lon="4.9825">
        <ele>411.9</ele>
        <time>2016-11-08T16:53:31Z</time>
      </trkpt>
      <trkpt lat="47.36982" lon="4.98235">
        <ele>411.5</ele>
        <time>2016-11-08T16:53:38Z</time>
      </trkpt>
      <trkpt lat="47.36985" lon="4.98222">
        <ele>411.4</ele>
        <time>2016-11-08T16:53:47Z</time>
      </trkpt>
      <trkpt lat="47.36987" lon="4.98209">
        <ele>411.4</ele>
        <time>2016-11-08T16:53:54Z</time>
      </trkpt>
      <trkpt lat="47.36988" lon="4.98196">
        <ele>410.8</ele>
        <time>2016-11-08T16:54:01Z</time>
      </trkpt>
      <trkpt lat="47.36991" lon="4.98182">
        <ele>410.8</ele>
        <time>2016-11-08T16:54:08Z</time>
      </trkpt>
      <trkpt lat="47.36994" lon="4.98168">
        <ele>410.7</ele>
        <time>2016-11-08T16:54:15Z</time>
      </trkpt>
      <trkpt lat="47.36996" lon="4.98153">
        <ele>410.3</ele>
        <time>2016-11-08T16:54:22Z</time>
      </trkpt>
      <trkpt lat="47.36997" lon="4.98139">
        <ele>410</ele>
        <time>2016-11-08T16:54:30Z</time>
      </trkpt>
      <trkpt lat="47.36999" lon="4.98125">
        <ele>409.8</ele>
        <time>2016-11-08T16:54:37Z</time>
      </trkpt>
      <trkpt lat="47.37002" lon="4.98109">
        <ele>410.2</ele>
        <time>2016-11-08T16:54:45Z</time>
      </trkpt>
      <trkpt lat="47.37003" lon="4.98095">
        <ele>410.4</ele>
        <time>2016-11-08T16:54:53Z</time>
      </trkpt>
      <trkpt lat="47.37006" lon="4.98081">
        <ele>410.4</ele>
        <time>2016-11-08T16:54:59Z</time>
      </trkpt>
      <trkpt lat="47.37009" lon="4.98067">
        <ele>410.7</ele>
        <time>2016-11-08T16:55:09Z</time>
      </trkpt>
      <trkpt lat="47.3701" lon="4.98054">
        <ele>410.6</ele>
        <time>2016-11-08T16:55:15Z</time>
      </trkpt>
      <trkpt lat="47.37013" lon="4.9804">
        <ele>411.2</ele>
        <time>2016-11-08T16:55:23Z</time>
      </trkpt>
      <trkpt lat="47.37015" lon="4.98026">
        <ele>411.3</ele>
        <time>2016-11-08T16:55:30Z</time>
      </trkpt>
      <trkpt lat="47.37017" lon="4.98011">
        <ele>411.3</ele>
        <time>2016-11-08T16:55:37Z</time>
      </trkpt>
      <trkpt lat="47.3702" lon="4.97998">
        <ele>411.3</ele>
        <time>2016-11-08T16:55:44Z</time>
      </trkpt>
      <trkpt lat="47.37022" lon="4.97984">
        <ele>411.4</ele>
        <time>2016-11-08T16:55:53Z</time>
      </trkpt>
      <trkpt lat="47.37025" lon="4.9797">
        <ele>411.9</ele>
        <time>2016-11-08T16:56:00Z</time>
      </trkpt>
      <trkpt lat="47.37027" lon="4.97956">
        <ele>412.2</ele>
        <time>2016-11-08T16:56:08Z</time>
      </trkpt>
      <trkpt lat="47.37029" lon="4.97942">
        <ele>412</ele>
        <time>2016-11-08T16:56:15Z</time>
      </trkpt>
      <trkpt lat="47.37031" lon="4.97928">
        <ele>411.5</ele>
        <time>2016-11-08T16:56:23Z</time>
      </trkpt>
      <trkpt lat="47.37034" lon="4.97914">
        <ele>411.4</ele>
        <time>2016-11-08T16:56:30Z</time>
      </trkpt>
      <trkpt lat="47.37037" lon="4.97901">
        <ele>411.5</ele>
        <time>2016-11-08T16:56:37Z</time>
      </trkpt>
      <trkpt lat="47.37039" lon="4.97888">
        <ele>411.4</ele>
        <time>2016-11-08T16:56:43Z</time>
      </trkpt>
      <trkpt lat="47.37042" lon="4.97875">
        <ele>411.1</ele>
        <time>2016-11-08T16:56:53Z</time>
      </trkpt>
      <trkpt lat="47.37044" lon="4.97861">
        <ele>411.2</ele>
        <time>2016-11-08T16:56:59Z</time>
      </trkpt>
      <trkpt lat="47.37046" lon="4.97848">
        <ele>411.7</ele>
        <time>2016-11-08T16:57:06Z</time>
      </trkpt>
      <trkpt lat="47.37047" lon="4.97834">
        <ele>411.5</ele>
        <time>2016-11-08T16:57:13Z</time>
      </trkpt>
      <trkpt lat="47.37049" lon="4.97819">
        <ele>411.5</ele>
        <time>2016-11-08T16:57:21Z</time>
      </trkpt>
      <trkpt lat="47.37051" lon="4.97806">
        <ele>411.5</ele>
        <time>2016-11-08T16:57:28Z</time>
      </trkpt>
      <trkpt lat="47.37054" lon="4.97793">
        <ele>411.4</ele>
        <time>2016-11-08T16:57:36Z</time>
      </trkpt>
      <trkpt lat="47.37055" lon="4.97779">
        <ele>411.7</ele>
        <time>2016-11-08T16:57:44Z</time>
      </trkpt>
      <trkpt lat="47.37052" lon="4.97765">
        <ele>412</ele>
        <time>2016-11-08T16:57:53Z</time>
      </trkpt>
      <trkpt lat="47.37051" lon="4.97752">
        <ele>412.4</ele>
        <time>2016-11-08T16:58:30Z</time>
      </trkpt>
      <trkpt lat="47.37049" lon="4.97739">
        <ele>412.2</ele>
        <time>2016-11-08T16:58:48Z</time>
      </trkpt>
      <trkpt lat="47.37048" lon="4.97724">
        <ele>411.8</ele>
        <time>2016-11-08T16:58:55Z</time>
      </trkpt>
      <trkpt lat="47.37047" lon="4.9771">
        <ele>412</ele>
        <time>2016-11-08T16:59:05Z</time>
      </trkpt>
      <trkpt lat="47.37046" lon="4.97696">
        <ele>412.4</ele>
        <time>2016-11-08T16:59:12Z</time>
      </trkpt>
      <trkpt lat="47.37044" lon="4.97683">
        <ele>413.2</ele>
        <time>2016-11-08T16:59:20Z</time>
      </trkpt>
      <trkpt lat="47.37037" lon="4.97676">
        <ele>413.9</ele>
        <time>2016-11-08T16:59:30Z</time>
      </trkpt>
      <trkpt lat="47.37028" lon="4.97683">
        <ele>414</ele>
        <time>2016-11-08T16:59:37Z</time>
      </trkpt>
      <trkpt lat="47.3702" lon="4.97689">
        <ele>414.3</ele>
        <time>2016-11-08T16:59:46Z</time>
      </trkpt>
      <trkpt lat="47.37012" lon="4.97693">
        <ele>414.7</ele>
        <time>2016-11-08T16:59:56Z</time>
      </trkpt>
      <trkpt lat="47.37003" lon="4.97699">
        <ele>415.4</ele>
        <time>2016-11-08T17:00:10Z</time>
      </trkpt>
      <trkpt lat="47.36994" lon="4.97705">
        <ele>415.6</ele>
        <time>2016-11-08T17:00:17Z</time>
      </trkpt>
      <trkpt lat="47.36986" lon="4.97713">
        <ele>415.6</ele>
        <time>2016-11-08T17:00:48Z</time>
      </trkpt>
      <trkpt lat="47.36977" lon="4.97719">
        <ele>416.5</ele>
        <time>2016-11-08T17:01:02Z</time>
      </trkpt>
      <trkpt lat="47.36969" lon="4.97726">
        <ele>417.5</ele>
        <time>2016-11-08T17:01:11Z</time>
      </trkpt>
      <trkpt lat="47.3696" lon="4.97732">
        <ele>418.1</ele>
        <time>2016-11-08T17:01:18Z</time>
      </trkpt>
      <trkpt lat="47.36952" lon="4.97738">
        <ele>419</ele>
        <time>2016-11-08T17:01:28Z</time>
      </trkpt>
      <trkpt lat="47.36943" lon="4.97742">
        <ele>419.9</ele>
        <time>2016-11-08T17:01:36Z</time>
      </trkpt>
      <trkpt lat="47.36934" lon="4.97749">
        <ele>420.4</ele>
        <time>2016-11-08T17:01:45Z</time>
      </trkpt>
      <trkpt lat="47.36925" lon="4.97756">
        <ele>421.2</ele>
        <time>2016-11-08T17:02:32Z</time>
      </trkpt>
      <trkpt lat="47.36916" lon="4.97763">
        <ele>421.8</ele>
        <time>2016-11-08T17:02:40Z</time>
      </trkpt>
      <trkpt lat="47.36908" lon="4.97769">
        <ele>422.3</ele>
        <time>2016-11-08T17:02:48Z</time>
      </trkpt>
      <trkpt lat="47.369" lon="4.97777">
        <ele>422.6</ele>
        <time>2016-11-08T17:02:58Z</time>
      </trkpt>
      <trkpt lat="47.36891" lon="4.97783">
        <ele>423.2</ele>
        <time>2016-11-08T17:03:06Z</time>
      </trkpt>
      <trkpt lat="47.36883" lon="4.9779">
        <ele>423.7</ele>
        <time>2016-11-08T17:03:13Z</time>
      </trkpt>
      <trkpt lat="47.36875" lon="4.97799">
        <ele>424.1</ele>
        <time>2016-11-08T17:03:21Z</time>
      </trkpt>
      <trkpt lat="47.36868" lon="4.97807">
        <ele>424.4</ele>
        <time>2016-11-08T17:03:29Z</time>
      </trkpt>
      <trkpt lat="47.3686" lon="4.97815">
        <ele>424.6</ele>
        <time>2016-11-08T17:03:36Z</time>
      </trkpt>
      <trkpt lat="47.36853" lon="4.97824">
        <ele>425.4</ele>
        <time>2016-11-08T17:03:44Z</time>
      </trkpt>
      <trkpt lat="47.36845" lon="4.97832">
        <ele>425.6</ele>
        <time>2016-11-08T17:03:49Z</time>
      </trkpt>
      <trkpt lat="47.36836" lon="4.9784">
        <ele>425.4</ele>
        <time>2016-11-08T17:04:00Z</time>
      </trkpt>
      <trkpt lat="47.36826" lon="4.97836">
        <ele>425.5</ele>
        <time>2016-11-08T17:04:07Z</time>
      </trkpt>
      <trkpt lat="47.36817" lon="4.97832">
        <ele>425.8</ele>
        <time>2016-11-08T17:04:14Z</time>
      </trkpt>
      <trkpt lat="47.36809" lon="4.97824">
        <ele>426.7</ele>
        <time>2016-11-08T17:04:57Z</time>
      </trkpt>
      <trkpt lat="47.36801" lon="4.97816">
        <ele>427.1</ele>
        <time>2016-11-08T17:05:05Z</time>
      </trkpt>
      <trkpt lat="47.36794" lon="4.97808">
        <ele>427.6</ele>
        <time>2016-11-08T17:05:11Z</time>
      </trkpt>
      <trkpt lat="47.36786" lon="4.97801">
        <ele>428.3</ele>
        <time>2016-11-08T17:05:20Z</time>
      </trkpt>
      <trkpt lat="47.36778" lon="4.97793">
        <ele>428.9</ele>
        <time>2016-11-08T17:05:27Z</time>
      </trkpt>
      <trkpt lat="47.36769" lon="4.97787">
        <ele>429.6</ele>
        <time>2016-11-08T17:05:35Z</time>
      </trkpt>
      <trkpt lat="47.36762" lon="4.97778">
        <ele>430.3</ele>
        <time>2016-11-08T17:05:44Z</time>
      </trkpt>
      <trkpt lat="47.36754" lon="4.9777">
        <ele>430.5</ele>
        <time>2016-11-08T17:05:50Z</time>
      </trkpt>
      <trkpt lat="47.36746" lon="4.97762">
        <ele>430.9</ele>
        <time>2016-11-08T17:05:59Z</time>
      </trkpt>
      <trkpt lat="47.36737" lon="4.97754">
        <ele>430.9</ele>
        <time>2016-11-08T17:06:06Z</time>
      </trkpt>
      <trkpt lat="47.36729" lon="4.97749">
        <ele>430.9</ele>
        <time>2016-11-08T17:06:14Z</time>
      </trkpt>
      <trkpt lat="47.36721" lon="4.9774">
        <ele>431</ele>
        <time>2016-11-08T17:06:22Z</time>
      </trkpt>
      <trkpt lat="47.36713" lon="4.97731">
        <ele>431.4</ele>
        <time>2016-11-08T17:06:28Z</time>
      </trkpt>
      <trkpt lat="47.36704" lon="4.97722">
        <ele>431.8</ele>
        <time>2016-11-08T17:06:36Z</time>
      </trkpt>
      <trkpt lat="47.36697" lon="4.97714">
        <ele>432</ele>
        <time>2016-11-08T17:06:45Z</time>
      </trkpt>
      <trkpt lat="47.36689" lon="4.97707">
        <ele>432.6</ele>
        <time>2016-11-08T17:06:52Z</time>
      </trkpt>
      <trkpt lat="47.3668" lon="4.97714">
        <ele>432.9</ele>
        <time>2016-11-08T17:07:00Z</time>
      </trkpt>
      <trkpt lat="47.36677" lon="4.97727">
        <ele>432.8</ele>
        <time>2016-11-08T17:07:07Z</time>
      </trkpt>
      <trkpt lat="47.36671" lon="4.97737">
        <ele>432.4</ele>
        <time>2016-11-08T17:07:14Z</time>
      </trkpt>
      <trkpt lat="47.36666" lon="4.97749">
        <ele>432</ele>
        <time>2016-11-08T17:07:23Z</time>
      </trkpt>
      <trkpt lat="47.36661" lon="4.97761">
        <ele>431.7</ele>
        <time>2016-11-08T17:07:30Z</time>
      </trkpt>
      <trkpt lat="47.36656" lon="4.97772">
        <ele>431.3</ele>
        <time>2016-11-08T17:07:36Z</time>
      </trkpt>
      <trkpt lat="47.3665" lon="4.97784">
        <ele>430.9</ele>
        <time>2016-11-08T17:07:43Z</time>
      </trkpt>
      <trkpt lat="47.36646" lon="4.97796">
        <ele>431</ele>
        <time>2016-11-08T17:07:52Z</time>
      </trkpt>
      <trkpt lat="47.36642" lon="4.97809">
        <ele>430.9</ele>
        <time>2016-11-08T17:07:59Z</time>
      </trkpt>
      <trkpt lat="47.36638" lon="4.97821">
        <ele>430.9</ele>
        <time>2016-11-08T17:08:04Z</time>
      </trkpt>
      <trkpt lat="47.36634" lon="4.97834">
        <ele>430.5</ele>
        <time>2016-11-08T17:08:15Z</time>
      </trkpt>
      <trkpt lat="47.36629" lon="4.97846">
        <ele>430.5</ele>
        <time>2016-11-08T17:08:23Z</time>
      </trkpt>
      <trkpt lat="47.36624" lon="4.97858">
        <ele>430.7</ele>
        <time>2016-11-08T17:08:29Z</time>
      </trkpt>
      <trkpt lat="47.3662" lon="4.9787">
        <ele>430.8</ele>
        <time>2016-11-08T17:08:38Z</time>
      </trkpt>
      <trkpt lat="47.36615" lon="4.97884">
        <ele>430.3</ele>
        <time>2016-11-08T17:08:49Z</time>
      </trkpt>
      <trkpt lat="47.36608" lon="4.97892">
        <ele>429.7</ele>
        <time>2016-11-08T17:08:56Z</time>
      </trkpt>
      <trkpt lat="47.36604" lon="4.97906">
        <ele>428.8</ele>
        <time>2016-11-08T17:09:06Z</time>
      </trkpt>
      <trkpt lat="47.36598" lon="4.97917">
        <ele>428.5</ele>
        <time>2016-11-08T17:09:11Z</time>
      </trkpt>
      <trkpt lat="47.36592" lon="4.97929">
        <ele>427.9</ele>
        <time>2016-11-08T17:09:20Z</time>
      </trkpt>
      <trkpt lat="47.36587" lon="4.9794">
        <ele>427.9</ele>
        <time>2016-11-08T17:09:27Z</time>
      </trkpt>
      <trkpt lat="47.36581" lon="4.9795">
        <ele>427.8</ele>
        <time>2016-11-08T17:09:35Z</time>
      </trkpt>
      <trkpt lat="47.36575" lon="4.97961">
        <ele>427.9</ele>
        <time>2016-11-08T17:09:44Z</time>
      </trkpt>
      <trkpt lat="47.36568" lon="4.97971">
        <ele>427.3</ele>
        <time>2016-11-08T17:10:06Z</time>
      </trkpt>
      <trkpt lat="47.3656" lon="4.97976">
        <ele>426.7</ele>
        <time>2016-11-08T17:10:20Z</time>
      </trkpt>
      <trkpt lat="47.36552" lon="4.97982">
        <ele>426.1</ele>
        <time>2016-11-08T17:10:33Z</time>
      </trkpt>
      <trkpt lat="47.36552" lon="4.97982">
        <ele>426.1</ele>
        <time>2016-11-08T17:10:48Z</time>
      </trkpt>
    </trkseg>
  </trk>
</gpx>